M I D A S
Marine Information and Data Acquisition System
Tripno 1621 of the Zeeleeuw from 2008-12-17 07:56:55 to 2008-12-17 14:39:23
Back to CruiseResearch ActivitiesStationsMapUnderway DataData graphs

EquipmentUnitsComment
TimeDGPSUTC
LatitudeDGPSDM.mWGS84
LongitudeDGPSDM.mWGS84
TemperatureSBE03/SBE38deg celciusITS90
ConductivitySBE21S/mITS90
SalinitySBE21 Practical Salinity Units
ChlorophylAChelsea fluorimeterg/lCalibrated in Aceton
Missing or incorrect values are displayed as -999
Sea surface data collected by the RV Zeeleeuw from 2008-12-17 08:00:30 to 2008-12-17 14:43:06
                                                                                    Next 1000 lines
Time Latitude Longitude Temperature Conductivity Salinity ChlorophylA
2008-12-17 08:00:40 51°13.662 2°55.952 -999 0.06351 0.364748 -0.896096
2008-12-17 08:00:45 51°13.663 2°55.948 -999 0.06351 0.364748 -0.93092
2008-12-17 08:00:50 51°13.664 2°55.944 -999 0.06351 0.364748 -0.93092
2008-12-17 08:00:55 51°13.666 2°55.938 -999 0.06351 0.364748 -0.93092
2008-12-17 08:01:01 51°13.668 2°55.931 -999 0.06351 0.364741 -0.93092
2008-12-17 08:01:07 51°13.67 2°55.923 -999 0.06351 0.364741 -0.93092
2008-12-17 08:01:12 51°13.672 2°55.915 -999 0.06351 0.364741 -0.93092
2008-12-17 08:01:18 51°13.674 2°55.906 -999 0.06351 0.364741 -0.896096
2008-12-17 08:01:23 51°13.675 2°55.899 -999 0.06351 0.364741 -0.93092
2008-12-17 08:01:28 51°13.677 2°55.891 -999 0.06351 0.364741 -0.93092
2008-12-17 08:01:34 51°13.679 2°55.882 -999 0.06351 0.364741 -0.93092
2008-12-17 08:01:38 51°13.68 2°55.876 -999 0.06351 0.364748 -0.93092
2008-12-17 08:01:43 51°13.681 2°55.869 -999 0.06351 0.364748 -0.93092
2008-12-17 08:01:48 51°13.683 2°55.862 -999 0.06351 0.364748 -0.93092
2008-12-17 08:01:53 51°13.684 2°55.855 -999 0.06351 0.364748 -0.93092
2008-12-17 08:01:58 51°13.685 2°55.848 -999 0.06351 0.364748 -0.93092
2008-12-17 08:02:03 51°13.686 2°55.841 -999 0.06351 0.364748 -0.93092
2008-12-17 08:02:07 51°13.687 2°55.836 -999 0.06351 0.364748 -0.896096
2008-12-17 08:02:12 51°13.688 2°55.83 -999 0.06351 0.364748 -0.93092
2008-12-17 08:02:17 51°13.689 2°55.823 -999 0.06351 0.364748 -0.93092
2008-12-17 08:02:22 51°13.69 2°55.818 -999 0.06351 0.364748 -0.93092
2008-12-17 08:02:27 51°13.691 2°55.812 -999 0.06351 0.364741 -0.93092
2008-12-17 08:02:31 51°13.692 2°55.808 -999 0.06351 0.364741 -0.93092
2008-12-17 08:02:36 51°13.692 2°55.802 -999 0.06351 0.364741 -0.93092
2008-12-17 08:02:41 51°13.693 2°55.797 -999 0.06351 0.364741 -0.93092
2008-12-17 08:02:46 51°13.694 2°55.792 -999 0.06351 0.364741 -0.93092
2008-12-17 08:02:51 51°13.694 2°55.787 -999 0.06351 0.364734 -0.93092
2008-12-17 08:02:55 51°13.695 2°55.783 -999 0.06351 0.364734 -0.93092
2008-12-17 08:03:00 51°13.695 2°55.778 -999 0.06351 0.364734 -0.93092
2008-12-17 08:03:05 51°13.695 2°55.773 -999 0.06351 0.364734 -0.93092
2008-12-17 08:03:10 51°13.696 2°55.769 -999 0.06351 0.364734 -0.93092
2008-12-17 08:03:15 51°13.696 2°55.764 -999 0.06351 0.364734 -0.93092
2008-12-17 08:03:20 51°13.696 2°55.76 -999 0.06351 0.364734 -0.93092
2008-12-17 08:03:25 51°13.696 2°55.756 -999 0.06351 0.364734 -0.93092
2008-12-17 08:03:30 51°13.697 2°55.752 -999 0.06351 0.364734 -0.93092
2008-12-17 08:03:35 51°13.697 2°55.749 -999 0.06351 0.364734 -0.896096
2008-12-17 08:03:39 51°13.697 2°55.746 -999 0.06351 0.364734 -0.93092
2008-12-17 08:03:44 51°13.697 2°55.743 -999 0.06351 0.364734 -0.93092
2008-12-17 08:03:50 51°13.697 2°55.74 -999 0.06351 0.364734 -0.93092
2008-12-17 08:03:55 51°13.697 2°55.737 -999 0.06351 0.364734 -0.93092
2008-12-17 08:04:00 51°13.696 2°55.734 -999 0.06351 0.364734 -0.93092
2008-12-17 08:04:05 51°13.696 2°55.732 -999 0.06351 0.364727 -0.93092
2008-12-17 08:04:10 51°13.696 2°55.731 -999 0.06351 0.364727 -0.896096
2008-12-17 08:04:15 51°13.696 2°55.729 -999 0.06351 0.364727 -0.93092
2008-12-17 08:04:20 51°13.696 2°55.727 -999 0.06351 0.364727 -0.93092
2008-12-17 08:04:25 51°13.697 2°55.725 -999 0.06351 0.364727 -0.93092
2008-12-17 08:04:30 51°13.698 2°55.724 -999 0.06351 0.364727 -0.93092
2008-12-17 08:04:35 51°13.698 2°55.723 -999 0.06351 0.364727 -0.93092
2008-12-17 08:04:40 51°13.698 2°55.722 -999 0.06351 0.364727 -0.93092
2008-12-17 08:04:45 51°13.698 2°55.721 -999 0.06351 0.364727 -0.93092
2008-12-17 08:04:50 51°13.699 2°55.72 -999 0.06351 0.364734 -0.896096
2008-12-17 08:04:55 51°13.699 2°55.719 -999 0.06351 0.364734 -0.93092
2008-12-17 08:05:00 51°13.7 2°55.718 -999 0.06351 0.364734 -0.93092
2008-12-17 08:05:05 51°13.7 2°55.717 -999 0.06351 0.364734 -0.93092
2008-12-17 08:05:10 51°13.7 2°55.716 -999 0.06351 0.364727 -0.93092
2008-12-17 08:05:15 51°13.701 2°55.715 -999 0.06351 0.364734 -0.93092
2008-12-17 08:05:20 51°13.701 2°55.714 -999 0.06351 0.364734 -0.93092
2008-12-17 08:05:25 51°13.701 2°55.713 -999 0.06351 0.364727 -0.93092
2008-12-17 08:05:30 51°13.701 2°55.712 -999 0.06351 0.364727 -0.93092
2008-12-17 08:05:35 51°13.701 2°55.711 -999 0.06351 0.364727 -0.93092
2008-12-17 08:05:40 51°13.7 2°55.71 -999 0.06351 0.364727 -0.896096
2008-12-17 08:05:45 51°13.7 2°55.709 -999 0.06351 0.364727 -0.93092
2008-12-17 08:05:50 51°13.7 2°55.707 -999 0.06351 0.364727 -0.93092
2008-12-17 08:05:55 51°13.699 2°55.706 -999 0.06351 0.364727 -0.93092
2008-12-17 08:05:59 51°13.699 2°55.705 -999 0.06351 0.364727 -0.93092
2008-12-17 08:06:05 51°13.698 2°55.704 -999 0.06351 0.364727 -0.93092
2008-12-17 08:06:10 51°13.698 2°55.702 -999 0.06351 0.364727 -0.896096
2008-12-17 08:06:15 51°13.697 2°55.701 -999 0.06351 0.36472 -0.896096
2008-12-17 08:06:19 51°13.697 2°55.701 -999 0.06351 0.364727 -0.93092
2008-12-17 08:06:25 51°13.696 2°55.7 -999 0.06351 0.364727 -0.93092
2008-12-17 08:06:30 51°13.696 2°55.698 -999 0.06351 0.364727 -0.93092
2008-12-17 08:06:35 51°13.695 2°55.698 -999 0.06351 0.364727 -0.93092
2008-12-17 08:06:39 51°13.695 2°55.697 -999 0.06351 0.36472 -0.93092
2008-12-17 08:06:45 51°13.695 2°55.696 -999 0.06351 0.36472 -0.93092
2008-12-17 08:06:50 51°13.695 2°55.695 -999 0.06351 0.36472 -0.93092
2008-12-17 08:06:55 51°13.694 2°55.695 -999 0.06351 0.36472 -0.93092
2008-12-17 08:06:59 51°13.694 2°55.695 -999 0.06351 0.36472 -0.93092
2008-12-17 08:07:05 51°13.694 2°55.694 -999 0.06351 0.36472 -0.93092
2008-12-17 08:07:10 51°13.694 2°55.693 -999 0.06351 0.36472 -0.93092
2008-12-17 08:07:15 51°13.693 2°55.693 -999 0.06351 0.36472 -0.93092
2008-12-17 08:07:19 51°13.693 2°55.692 -999 0.06351 0.36472 -0.93092
2008-12-17 08:07:25 51°13.693 2°55.692 -999 0.06351 0.36472 -0.93092
2008-12-17 08:07:30 51°13.692 2°55.691 -999 0.06351 0.36472 -0.93092
2008-12-17 08:07:35 51°13.692 2°55.691 -999 0.06351 0.36472 -0.93092
2008-12-17 08:07:39 51°13.692 2°55.69 -999 0.06351 0.36472 -0.93092
2008-12-17 08:07:45 51°13.692 2°55.69 -999 0.06351 0.364713 -0.93092
2008-12-17 08:07:50 51°13.692 2°55.69 -999 0.06351 0.36472 -0.93092
2008-12-17 08:07:55 51°13.692 2°55.689 -999 0.06351 0.364713 -0.93092
2008-12-17 08:07:59 51°13.692 2°55.689 -999 0.06351 0.364713 -0.93092
2008-12-17 08:08:05 51°13.692 2°55.689 -999 0.06351 0.364713 -0.93092
2008-12-17 08:08:10 51°13.693 2°55.689 -999 0.06351 0.364713 -0.93092
2008-12-17 08:08:15 51°13.693 2°55.689 -999 0.06351 0.364713 -0.93092
2008-12-17 08:08:19 51°13.693 2°55.689 -999 0.06351 0.364713 -0.93092
2008-12-17 08:08:24 51°13.694 2°55.689 -999 0.06351 0.364713 -0.93092
2008-12-17 08:08:30 51°13.694 2°55.689 -999 0.06351 0.364713 -0.93092
2008-12-17 08:08:35 51°13.694 2°55.689 -999 0.06351 0.364713 -0.93092
2008-12-17 08:08:39 51°13.694 2°55.688 -999 0.06351 0.364713 -0.93092
2008-12-17 08:08:44 51°13.694 2°55.688 -999 0.06351 0.364706 -0.93092
2008-12-17 08:08:50 51°13.694 2°55.688 -999 0.06351 0.364706 -0.93092
2008-12-17 08:08:55 51°13.694 2°55.688 -999 0.06351 0.364699 -0.93092
2008-12-17 08:09:00 51°13.694 2°55.687 -999 0.06351 0.364699 -0.93092
2008-12-17 08:09:04 51°13.694 2°55.687 -999 0.06351 0.364706 -0.93092
2008-12-17 08:09:10 51°13.694 2°55.687 -999 0.06351 0.364699 -0.93092
2008-12-17 08:09:15 51°13.695 2°55.687 -999 0.06351 0.364699 -0.93092
2008-12-17 08:09:20 51°13.695 2°55.687 -999 0.06351 0.364699 -0.93092
2008-12-17 08:09:25 51°13.696 2°55.687 -999 0.06351 0.364699 -0.896096
2008-12-17 08:09:30 51°13.697 2°55.687 -999 0.06351 0.364699 -0.896096
2008-12-17 08:09:35 51°13.697 2°55.687 -999 0.06351 0.364692 -0.93092
2008-12-17 08:09:40 51°13.697 2°55.687 -999 0.06351 0.364692 -0.93092
2008-12-17 08:09:45 51°13.697 2°55.687 -999 0.06351 0.364692 -0.93092
2008-12-17 08:09:50 51°13.697 2°55.686 -999 0.06351 0.364692 -0.93092
2008-12-17 08:09:55 51°13.697 2°55.686 -999 0.06351 0.364692 -0.93092
2008-12-17 08:10:00 51°13.697 2°55.686 -999 0.06351 0.364692 -0.93092
2008-12-17 08:10:04 51°13.697 2°55.686 -999 0.06351 0.364692 -0.93092
2008-12-17 08:10:10 51°13.697 2°55.685 -999 0.06351 0.364686 -0.93092
2008-12-17 08:10:15 51°13.697 2°55.685 -999 0.06351 0.364686 -0.93092
2008-12-17 08:10:20 51°13.697 2°55.684 -999 0.06351 0.364686 -0.93092
2008-12-17 08:10:24 51°13.697 2°55.684 -999 0.06351 0.364686 -0.93092
2008-12-17 08:10:30 51°13.698 2°55.684 -999 0.06351 0.364686 -0.93092
2008-12-17 08:10:35 51°13.699 2°55.684 -999 0.06351 0.364686 -0.93092
2008-12-17 08:10:39 51°13.699 2°55.684 -999 0.06351 0.364679 -0.93092
2008-12-17 08:10:44 51°13.699 2°55.683 -999 0.06351 0.364679 -0.896096
2008-12-17 08:10:50 51°13.699 2°55.683 -999 0.06351 0.364672 -0.93092
2008-12-17 08:10:55 51°13.699 2°55.683 -999 0.06351 0.364679 -0.93092
2008-12-17 08:11:00 51°13.7 2°55.682 -999 0.06351 0.364679 -0.93092
2008-12-17 08:11:04 51°13.7 2°55.682 -999 0.06351 0.364679 -0.93092
2008-12-17 08:11:10 51°13.7 2°55.681 -999 0.06351 0.364672 -0.93092
2008-12-17 08:11:15 51°13.7 2°55.681 -999 0.06351 0.364672 -0.93092
2008-12-17 08:11:20 51°13.7 2°55.68 -999 0.06351 0.364672 -0.93092
2008-12-17 08:11:24 51°13.7 2°55.68 -999 0.06351 0.364672 -0.93092
2008-12-17 08:11:30 51°13.7 2°55.679 -999 0.06351 0.364672 -0.93092
2008-12-17 08:11:35 51°13.701 2°55.679 -999 0.06351 0.364665 -0.93092
2008-12-17 08:11:40 51°13.701 2°55.678 -999 0.06351 0.364665 -0.93092
2008-12-17 08:11:45 51°13.702 2°55.678 -999 0.06351 0.364665 -0.93092
2008-12-17 08:11:50 51°13.702 2°55.678 -999 0.06351 0.364665 -0.93092
2008-12-17 08:11:55 51°13.703 2°55.678 -999 0.06351 0.364658 -0.93092
2008-12-17 08:12:00 51°13.704 2°55.678 -999 0.06351 0.364658 -0.93092
2008-12-17 08:12:04 51°13.705 2°55.678 -999 0.06351 0.364658 -0.93092
2008-12-17 08:12:10 51°13.705 2°55.677 -999 0.06351 0.364658 -0.896096
2008-12-17 08:12:15 51°13.706 2°55.676 -999 0.06351 0.364658 -0.93092
2008-12-17 08:12:20 51°13.708 2°55.676 -999 0.06351 0.364658 -0.93092
2008-12-17 08:12:24 51°13.709 2°55.676 -999 0.06351 0.364651 -0.896096
2008-12-17 08:12:30 51°13.712 2°55.675 -999 0.06351 0.364651 -0.896096
2008-12-17 08:12:35 51°13.715 2°55.674 -999 0.06351 0.364644 -0.896096
2008-12-17 08:12:39 51°13.718 2°55.673 -999 0.06351 0.364644 -0.896096
2008-12-17 08:12:44 51°13.723 2°55.672 -999 0.06351 0.364644 -0.93092
2008-12-17 08:12:50 51°13.731 2°55.67 -999 0.06351 0.364644 -0.93092
2008-12-17 08:12:55 51°13.737 2°55.668 -999 0.06351 0.364637 -0.896096
2008-12-17 08:13:00 51°13.745 2°55.666 -999 0.06351 0.364637 -0.896096
2008-12-17 08:13:05 51°13.753 2°55.664 -999 0.06351 0.364637 -0.93092
2008-12-17 08:13:10 51°13.762 2°55.662 -999 0.06351 0.364637 -0.896096
2008-12-17 08:13:15 51°13.771 2°55.66 -999 0.06351 0.364637 -0.93092
2008-12-17 08:13:20 51°13.78 2°55.657 -999 0.06351 0.364637 -0.93092
2008-12-17 08:13:25 51°13.79 2°55.654 -999 0.06351 0.364637 -0.93092
2008-12-17 08:13:30 51°13.801 2°55.65 -999 0.06351 0.364637 -0.93092
2008-12-17 08:13:35 51°13.812 2°55.646 -999 0.06351 0.364637 -0.93092
2008-12-17 08:13:40 51°13.823 2°55.641 -999 0.06351 0.364637 -0.93092
2008-12-17 08:13:45 51°13.834 2°55.637 -999 0.06351 0.36463 -0.93092
2008-12-17 08:13:50 51°13.846 2°55.631 -999 0.06351 0.36463 -0.896096
2008-12-17 08:13:55 51°13.857 2°55.626 -999 0.06351 0.36463 -0.93092
2008-12-17 08:14:00 51°13.868 2°55.62 -999 0.06351 0.36463 -0.93092
2008-12-17 08:14:05 51°13.879 2°55.615 -999 0.06351 0.36463 -0.93092
2008-12-17 08:14:10 51°13.89 2°55.61 -999 0.06351 0.36463 -0.93092
2008-12-17 08:14:15 51°13.9 2°55.604 -999 0.06351 0.36463 -0.93092
2008-12-17 08:14:20 51°13.91 2°55.599 -999 0.06351 0.36463 -0.93092
2008-12-17 08:14:25 51°13.919 2°55.593 -999 0.06351 0.364624 -0.93092
2008-12-17 08:14:30 51°13.928 2°55.587 -999 0.06351 0.364624 -0.93092
2008-12-17 08:14:35 51°13.937 2°55.582 -999 0.06351 0.364624 -0.93092
2008-12-17 08:14:40 51°13.945 2°55.576 -999 0.06351 0.364624 -0.93092
2008-12-17 08:14:45 51°13.953 2°55.57 -999 0.06351 0.364624 -0.93092
2008-12-17 08:14:50 51°13.961 2°55.564 -999 0.06351 0.364617 -0.93092
2008-12-17 08:14:55 51°13.97 2°55.559 -999 0.06351 0.36461 -0.896096
2008-12-17 08:15:00 51°13.978 2°55.553 -999 0.06351 0.36461 -0.896096
2008-12-17 08:15:05 51°13.986 2°55.548 -999 0.06351 0.36461 -0.93092
2008-12-17 08:15:10 51°13.994 2°55.542 -999 0.06351 0.36461 -0.93092
2008-12-17 08:15:15 51°14.002 2°55.536 -999 0.06351 0.36461 -0.93092
2008-12-17 08:15:20 51°14.01 2°55.529 -999 0.06351 0.36461 -0.93092
2008-12-17 08:15:25 51°14.018 2°55.523 -999 0.06351 0.36461 -0.93092
2008-12-17 08:15:30 51°14.026 2°55.516 -999 0.06351 0.364603 -0.896096
2008-12-17 08:15:35 51°14.034 2°55.509 -999 0.06351 0.364603 -0.93092
2008-12-17 08:15:40 51°14.043 2°55.502 -999 0.06351 0.364603 -0.93092
2008-12-17 08:15:45 51°14.051 2°55.494 -999 0.06351 0.364596 -0.896096
2008-12-17 08:15:50 51°14.06 2°55.487 -999 0.06351 0.364596 -0.896096
2008-12-17 08:15:55 51°14.069 2°55.479 -999 0.06351 0.364596 -0.93092
2008-12-17 08:16:00 51°14.079 2°55.472 -999 0.06351 0.364596 -0.93092
2008-12-17 08:16:05 51°14.088 2°55.463 -999 0.06351 0.364596 -0.93092
2008-12-17 08:16:10 51°14.097 2°55.455 -999 0.06351 0.364589 -0.93092
2008-12-17 08:16:15 51°14.107 2°55.446 -999 0.06351 0.364589 -0.93092
2008-12-17 08:16:20 51°14.117 2°55.437 -999 0.06351 0.364589 -0.93092
2008-12-17 08:16:25 51°14.127 2°55.428 -999 0.06351 0.364589 -0.93092
2008-12-17 08:16:30 51°14.137 2°55.418 -999 0.06351 0.364589 -0.93092
2008-12-17 08:16:35 51°14.147 2°55.407 -999 0.06351 0.364589 -0.93092
2008-12-17 08:16:40 51°14.158 2°55.396 -999 0.06351 0.364582 -0.896096
2008-12-17 08:16:45 51°14.168 2°55.384 -999 0.06351 0.364582 -0.93092
2008-12-17 08:16:50 51°14.179 2°55.372 -999 0.06351 0.364582 -0.93092
2008-12-17 08:16:55 51°14.19 2°55.359 -999 0.06351 0.364582 -0.93092
2008-12-17 08:16:59 51°14.199 2°55.349 -999 0.06351 0.364575 -0.93092
2008-12-17 08:17:05 51°14.212 2°55.334 -999 0.06351 0.364575 -0.93092
2008-12-17 08:17:10 51°14.223 2°55.32 -999 0.06351 0.364575 -0.93092
2008-12-17 08:17:15 51°14.235 2°55.307 -999 0.06351 0.364575 -0.93092
2008-12-17 08:17:19 51°14.244 2°55.295 -999 0.06351 0.364575 -0.93092
2008-12-17 08:17:25 51°14.257 2°55.278 -999 0.06351 0.364575 -0.93092
2008-12-17 08:17:30 51°14.268 2°55.262 -999 0.06351 0.364575 -0.93092
2008-12-17 08:17:35 51°14.278 2°55.247 -999 0.06351 0.364568 -0.93092
2008-12-17 08:17:39 51°14.287 2°55.234 -999 0.06351 0.364568 -0.93092
2008-12-17 08:17:45 51°14.3 2°55.214 -999 0.06351 0.364568 -0.93092
2008-12-17 08:17:50 51°14.311 2°55.196 -999 0.06351 0.364568 -0.93092
2008-12-17 08:17:55 51°14.322 2°55.178 -999 0.06351 0.364568 -0.93092
2008-12-17 08:17:59 51°14.33 2°55.163 -999 0.06351 0.364568 -0.93092
2008-12-17 08:18:05 51°14.343 2°55.14 -999 0.06351 0.364562 -0.93092
2008-12-17 08:18:10 51°14.353 2°55.121 -999 0.06351 0.364562 -0.93092
2008-12-17 08:18:15 51°14.364 2°55.101 -999 0.06351 0.364555 -0.896096
2008-12-17 08:18:19 51°14.372 2°55.085 -999 0.06351 0.364555 -0.93092
2008-12-17 08:18:25 51°14.385 2°55.061 -999 0.06351 0.364548 -0.93092
2008-12-17 08:18:30 51°14.396 2°55.041 -999 0.06351 0.364548 -0.93092
2008-12-17 08:18:35 51°14.407 2°55.021 -999 0.06351 0.364548 -0.896096
2008-12-17 08:18:39 51°14.415 2°55.004 -999 0.06351 0.364548 -0.93092
2008-12-17 08:18:45 51°14.429 2°54.98 -999 0.06351 0.364548 -0.93092
2008-12-17 08:18:50 51°14.44 2°54.959 -999 0.06351 0.364555 -0.93092
2008-12-17 08:18:55 51°14.451 2°54.938 -999 0.06351 0.364548 -0.896096
2008-12-17 08:18:59 51°14.46 2°54.921 -999 0.06351 0.364548 -0.896096
2008-12-17 08:19:05 51°14.473 2°54.897 -999 0.06351 0.364541 -0.896096
2008-12-17 08:19:10 51°14.485 2°54.876 -999 0.06351 0.364541 -0.93092
2008-12-17 08:19:15 51°14.496 2°54.856 -999 0.06351 0.364541 -0.93092
2008-12-17 08:19:19 51°14.506 2°54.84 -999 0.06351 0.364541 -0.93092
2008-12-17 08:19:25 51°14.52 2°54.817 -999 0.06351 0.364541 -0.93092
2008-12-17 08:19:30 51°14.532 2°54.798 -999 0.06351 0.364541 -0.93092
2008-12-17 08:19:35 51°14.544 2°54.778 -999 0.06351 0.364534 -0.896096
2008-12-17 08:19:39 51°14.554 2°54.764 -999 0.06351 0.364534 -0.93092
2008-12-17 08:19:45 51°14.569 2°54.741 -999 0.06351 0.364534 -0.93092
2008-12-17 08:19:50 51°14.582 2°54.723 -999 0.06351 0.364534 -0.93092
2008-12-17 08:19:55 51°14.595 2°54.705 -999 0.06351 0.364534 -0.93092
2008-12-17 08:19:59 51°14.605 2°54.691 -999 0.06351 0.364534 -0.93092
2008-12-17 08:20:05 51°14.621 2°54.67 -999 0.06351 0.364527 -0.93092
2008-12-17 08:20:10 51°14.634 2°54.653 -999 0.06351 0.364527 -0.93092
2008-12-17 08:20:15 51°14.648 2°54.636 -999 0.06351 0.364534 -0.93092
2008-12-17 08:20:19 51°14.658 2°54.622 -999 0.06351 0.364527 -0.93092
2008-12-17 08:20:25 51°14.674 2°54.601 -999 0.06351 0.364527 -0.93092
2008-12-17 08:20:30 51°14.688 2°54.584 -999 0.06351 0.364527 -0.93092
2008-12-17 08:20:35 51°14.701 2°54.567 -999 0.06351 0.364527 -0.93092
2008-12-17 08:20:39 51°14.712 2°54.553 -999 0.06351 0.364527 -0.93092
2008-12-17 08:20:44 51°14.725 2°54.535 -999 0.06351 0.36452 -0.93092
2008-12-17 08:20:50 51°14.74 2°54.514 -999 0.06351 0.36452 -0.93092
2008-12-17 08:20:55 51°14.754 2°54.497 -999 0.06351 0.364513 -0.93092
2008-12-17 08:21:00 51°14.767 2°54.48 -999 0.06351 0.364513 -0.93092
2008-12-17 08:21:05 51°14.78 2°54.463 -999 0.06351 0.36452 -0.93092
2008-12-17 08:21:10 51°14.794 2°54.446 -999 0.06351 0.364513 -0.896096
2008-12-17 08:21:15 51°14.807 2°54.43 -999 0.06351 0.364513 -0.93092
2008-12-17 08:21:20 51°14.821 2°54.413 -999 0.06351 0.364513 -0.93092
2008-12-17 08:21:25 51°14.835 2°54.397 -999 0.06351 0.364513 -0.896096
2008-12-17 08:21:30 51°14.848 2°54.381 -999 0.06351 0.364513 -0.896096
2008-12-17 08:21:35 51°14.862 2°54.365 -999 0.06351 0.36452 -0.93092
2008-12-17 08:21:40 51°14.875 2°54.348 -999 0.06351 0.364513 -0.896096
2008-12-17 08:21:45 51°14.888 2°54.331 -999 0.06351 0.364513 -0.93092
2008-12-17 08:21:50 51°14.902 2°54.315 -999 0.06351 0.364506 -0.896096
2008-12-17 08:21:55 51°14.915 2°54.298 -999 0.06351 0.364506 -0.93092
2008-12-17 08:22:00 51°14.928 2°54.282 -999 0.06351 0.364506 -0.93092
2008-12-17 08:22:05 51°14.942 2°54.265 -999 0.06351 0.364506 -0.93092
2008-12-17 08:22:10 51°14.955 2°54.249 -999 0.06351 0.364506 -0.93092
2008-12-17 08:22:15 51°14.968 2°54.232 -999 0.06351 0.3645 -0.93092
2008-12-17 08:22:20 51°14.981 2°54.216 -999 0.06351 0.3645 -0.93092
2008-12-17 08:22:25 51°14.994 2°54.2 -999 0.06351 0.3645 -0.93092
2008-12-17 08:22:30 51°15.008 2°54.184 -999 0.06351 0.3645 -0.93092
2008-12-17 08:22:35 51°15.021 2°54.167 -999 0.06351 0.3645 -0.93092
2008-12-17 08:22:40 51°15.034 2°54.15 -999 0.06351 0.3645 -0.93092
2008-12-17 08:22:45 51°15.047 2°54.133 -999 0.06351 0.3645 -0.93092
2008-12-17 08:22:50 51°15.06 2°54.116 -999 0.06351 0.364493 -0.93092
2008-12-17 08:22:55 51°15.073 2°54.099 -999 0.06351 0.3645 -0.93092
2008-12-17 08:23:00 51°15.086 2°54.082 -999 0.06351 0.3645 -0.93092
2008-12-17 08:23:05 51°15.099 2°54.065 -999 0.06351 0.364493 -0.93092
2008-12-17 08:23:10 51°15.113 2°54.048 -999 0.06351 0.3645 -0.896096
2008-12-17 08:23:15 51°15.126 2°54.031 -999 0.06351 0.364493 -0.896096
2008-12-17 08:23:20 51°15.139 2°54.014 -999 0.06351 0.364493 -0.93092
2008-12-17 08:23:25 51°15.152 2°53.997 -999 0.06351 0.364493 -0.93092
2008-12-17 08:23:30 51°15.165 2°53.979 -999 0.06351 0.364493 -0.93092
2008-12-17 08:23:35 51°15.178 2°53.962 -999 0.06351 0.364486 -0.93092
2008-12-17 08:23:40 51°15.191 2°53.945 -999 0.06351 0.364493 -0.93092
2008-12-17 08:23:45 51°15.205 2°53.928 -999 0.06351 0.364486 -0.896096
2008-12-17 08:23:50 51°15.218 2°53.91 -999 0.06351 0.364493 -0.896096
2008-12-17 08:23:55 51°15.231 2°53.893 -999 0.06351 0.364486 -0.93092
2008-12-17 08:24:00 51°15.244 2°53.877 -999 0.06351 0.364486 -0.93092
2008-12-17 08:24:05 51°15.257 2°53.859 -999 0.06351 0.364486 -0.93092
2008-12-17 08:24:10 51°15.27 2°53.843 -999 0.06351 0.364486 -0.93092
2008-12-17 08:24:15 51°15.284 2°53.826 -999 0.06351 0.364486 -0.93092
2008-12-17 08:24:20 51°15.297 2°53.809 -999 0.06351 0.364486 -0.93092
2008-12-17 08:24:25 51°15.31 2°53.792 -999 0.06351 0.364486 -0.93092
2008-12-17 08:24:30 51°15.324 2°53.776 -999 0.06351 0.364486 -0.93092
2008-12-17 08:24:35 51°15.337 2°53.759 -999 0.06351 0.364486 -0.896096
2008-12-17 08:24:40 51°15.351 2°53.742 -999 0.06351 0.364479 -0.93092
2008-12-17 08:24:45 51°15.365 2°53.726 -999 0.06351 0.364479 -0.93092
2008-12-17 08:24:50 51°15.378 2°53.71 -999 0.06351 0.364472 -0.93092
2008-12-17 08:24:55 51°15.393 2°53.695 -999 0.06351 0.364479 -0.93092
2008-12-17 08:25:00 51°15.406 2°53.679 -999 0.06351 0.364479 -0.93092
2008-12-17 08:25:05 51°15.421 2°53.663 -999 0.06351 0.364472 -0.93092
2008-12-17 08:25:10 51°15.435 2°53.648 -999 0.06351 0.364472 -0.93092
2008-12-17 08:25:15 51°15.449 2°53.632 -999 0.06351 0.364472 -0.93092
2008-12-17 08:25:20 51°15.463 2°53.616 -999 0.06351 0.364472 -0.93092
2008-12-17 08:25:25 51°15.477 2°53.601 -999 0.06351 0.364472 -0.93092
2008-12-17 08:25:30 51°15.491 2°53.585 -999 0.06351 0.364472 -0.93092
2008-12-17 08:25:35 51°15.504 2°53.569 -999 0.06351 0.364472 -0.93092
2008-12-17 08:25:40 51°15.518 2°53.553 -999 0.063613 0.365075 -0.896096
2008-12-17 08:25:45 51°15.532 2°53.537 -999 0.06351 0.364465 -0.896096
2008-12-17 08:25:50 51°15.546 2°53.521 -999 0.06351 0.364465 -0.93092
2008-12-17 08:25:55 51°15.56 2°53.505 -999 0.06351 0.364465 -0.93092
2008-12-17 08:26:00 51°15.574 2°53.489 -999 0.06351 0.364465 -0.93092
2008-12-17 08:26:05 51°15.588 2°53.472 -999 0.06351 0.364458 -0.93092
2008-12-17 08:26:10 51°15.602 2°53.456 -999 0.06351 0.364465 -0.93092
2008-12-17 08:26:15 51°15.616 2°53.44 -999 0.06351 0.364458 -0.93092
2008-12-17 08:26:20 51°15.63 2°53.423 -999 0.063613 0.365068 -0.93092
2008-12-17 08:26:25 51°15.643 2°53.406 -999 0.063613 0.365068 -0.896096
2008-12-17 08:26:30 51°15.657 2°53.39 -999 0.063613 0.365068 -0.896096
2008-12-17 08:26:35 51°15.671 2°53.374 -999 0.06351 0.364458 -0.93092
2008-12-17 08:26:40 51°15.685 2°53.357 -999 0.06351 0.364458 -0.93092
2008-12-17 08:26:45 51°15.698 2°53.34 -999 0.06351 0.364458 -0.93092
2008-12-17 08:26:50 51°15.712 2°53.323 -999 0.06351 0.364458 -0.93092
2008-12-17 08:26:55 51°15.726 2°53.307 -999 0.06351 0.364458 -0.93092
2008-12-17 08:27:00 51°15.739 2°53.289 -999 0.06351 0.364458 -0.93092
2008-12-17 08:27:05 51°15.753 2°53.273 -999 0.06351 0.364458 -0.93092
2008-12-17 08:27:10 51°15.766 2°53.256 -999 0.063613 0.365068 -0.896096
2008-12-17 08:27:15 51°15.78 2°53.239 -999 0.06351 0.364451 -0.93092
2008-12-17 08:27:20 51°15.793 2°53.222 -999 0.06351 0.364458 -0.93092
2008-12-17 08:27:25 51°15.807 2°53.205 -999 0.06351 0.364458 -0.93092
2008-12-17 08:27:30 51°15.821 2°53.188 -999 0.06351 0.364458 -0.93092
2008-12-17 08:27:35 51°15.834 2°53.171 -999 0.063613 0.365061 -0.93092
2008-12-17 08:27:40 51°15.848 2°53.154 -999 0.06351 0.364451 -0.93092
2008-12-17 08:27:45 51°15.861 2°53.137 -999 0.063613 0.365061 -0.93092
2008-12-17 08:27:50 51°15.874 2°53.12 -999 0.06351 0.364451 -0.93092
2008-12-17 08:27:55 51°15.888 2°53.103 -999 0.06351 0.364451 -0.93092
2008-12-17 08:28:00 51°15.901 2°53.086 -999 0.06351 0.364451 -0.93092
2008-12-17 08:28:05 51°15.915 2°53.069 -999 0.063613 0.365061 -0.93092
2008-12-17 08:28:10 51°15.928 2°53.052 -999 0.06351 0.364451 -0.93092
2008-12-17 08:28:15 51°15.941 2°53.034 -999 0.063613 0.365061 -0.93092
2008-12-17 08:28:20 51°15.955 2°53.017 -999 0.06351 0.364451 -0.93092
2008-12-17 08:28:25 51°15.968 2°53 -999 0.063613 0.365061 -0.93092
2008-12-17 08:28:30 51°15.981 2°52.983 -999 0.063613 0.365061 -0.93092
2008-12-17 08:28:35 51°15.995 2°52.965 -999 0.06351 0.364445 -0.896096
2008-12-17 08:28:40 51°16.008 2°52.948 -999 0.063613 0.365054 -0.896096
2008-12-17 08:28:45 51°16.022 2°52.931 -999 0.063613 0.365054 -0.93092
2008-12-17 08:28:50 51°16.035 2°52.914 -999 0.06351 0.364445 -0.93092
2008-12-17 08:28:55 51°16.048 2°52.896 -999 0.063613 0.365048 -0.93092
2008-12-17 08:29:00 51°16.062 2°52.879 -999 0.063613 0.365048 -0.93092
2008-12-17 08:29:04 51°16.073 2°52.866 -999 0.063613 0.365048 -0.896096
2008-12-17 08:29:10 51°16.089 2°52.846 -999 0.06351 0.364445 -0.93092
2008-12-17 08:29:15 51°16.102 2°52.828 -999 0.063613 0.365048 -0.93092
2008-12-17 08:29:20 51°16.116 2°52.811 -999 0.063613 0.365054 -0.93092
2008-12-17 08:29:24 51°16.126 2°52.797 -999 0.063613 0.365048 -0.93092
2008-12-17 08:29:30 51°16.143 2°52.777 -999 0.063613 0.365048 -0.93092
2008-12-17 08:29:35 51°16.156 2°52.76 -999 0.063613 0.365048 -0.93092
2008-12-17 08:29:40 51°16.17 2°52.743 -999 0.063613 0.365048 -0.93092
2008-12-17 08:29:44 51°16.18 2°52.729 -999 0.06351 0.364438 -0.896096
2008-12-17 08:29:50 51°16.197 2°52.709 -999 0.063613 0.365048 -0.93092
2008-12-17 08:29:55 51°16.21 2°52.691 -999 0.063613 0.365048 -0.93092
2008-12-17 08:30:00 51°16.224 2°52.674 -999 0.063613 0.365048 -0.93092
2008-12-17 08:30:05 51°16.237 2°52.657 -999 0.063613 0.365041 -0.93092
2008-12-17 08:30:10 51°16.251 2°52.64 -999 0.063613 0.365041 -0.93092
2008-12-17 08:30:15 51°16.265 2°52.623 -999 0.06351 0.364431 -0.896096
2008-12-17 08:30:20 51°16.278 2°52.606 -999 0.063613 0.365041 -0.896096
2008-12-17 08:30:24 51°16.289 2°52.592 -999 0.063613 0.365041 -0.93092
2008-12-17 08:30:30 51°16.305 2°52.571 -999 0.063613 0.365041 -0.93092
2008-12-17 08:30:35 51°16.319 2°52.554 -999 0.063613 0.365041 -0.93092
2008-12-17 08:30:39 51°16.33 2°52.54 -999 0.063613 0.365041 -0.93092
2008-12-17 08:30:44 51°16.343 2°52.523 -999 0.063613 0.365034 -0.93092
2008-12-17 08:30:50 51°16.36 2°52.503 -999 0.063613 0.365034 -0.93092
2008-12-17 08:30:55 51°16.374 2°52.485 -999 0.063613 0.365034 -0.896096
2008-12-17 08:31:00 51°16.387 2°52.468 -999 0.063613 0.365034 -0.896096
2008-12-17 08:31:04 51°16.398 2°52.455 -999 0.063613 0.365034 -0.93092
2008-12-17 08:31:10 51°16.415 2°52.434 -999 0.063613 0.365034 -0.93092
2008-12-17 08:31:15 51°16.428 2°52.417 -999 0.063613 0.365034 -0.896096
2008-12-17 08:31:20 51°16.442 2°52.4 -999 0.063613 0.365034 -0.93092
2008-12-17 08:31:25 51°16.456 2°52.383 -999 0.063613 0.365034 -0.93092
2008-12-17 08:31:30 51°16.47 2°52.366 -999 0.063613 0.365034 -0.93092
2008-12-17 08:31:35 51°16.483 2°52.349 -999 0.063613 0.365027 -0.93092
2008-12-17 08:31:40 51°16.497 2°52.333 -999 0.063613 0.365027 -0.93092
2008-12-17 08:31:45 51°16.512 2°52.316 -999 0.063613 0.365027 -0.896096
2008-12-17 08:31:50 51°16.525 2°52.3 -999 0.063613 0.365034 -0.93092
2008-12-17 08:31:55 51°16.539 2°52.283 -999 0.063613 0.365027 -0.93092
2008-12-17 08:32:00 51°16.553 2°52.266 -999 0.063613 0.365027 -0.93092
2008-12-17 08:32:05 51°16.566 2°52.249 -999 0.063613 0.365027 -0.93092
2008-12-17 08:32:10 51°16.58 2°52.232 -999 0.063613 0.365027 -0.93092
2008-12-17 08:32:15 51°16.594 2°52.215 -999 0.063613 0.365027 -0.93092
2008-12-17 08:32:20 51°16.607 2°52.198 -999 0.063613 0.36502 -0.93092
2008-12-17 08:32:25 51°16.621 2°52.182 -999 0.063613 0.36502 -0.93092
2008-12-17 08:32:30 51°16.635 2°52.165 -999 0.063613 0.36502 -0.93092
2008-12-17 08:32:35 51°16.649 2°52.149 -999 0.063613 0.36502 -0.93092
2008-12-17 08:32:40 51°16.663 2°52.134 -999 0.063613 0.36502 -0.93092
2008-12-17 08:32:45 51°16.677 2°52.119 -999 0.063613 0.36502 -0.93092
2008-12-17 08:32:50 51°16.692 2°52.104 -999 0.063613 0.36502 -0.93092
2008-12-17 08:32:55 51°16.706 2°52.09 -999 0.063613 0.365027 -0.93092
2008-12-17 08:33:00 51°16.721 2°52.076 -999 0.063613 0.365027 -0.93092
2008-12-17 08:33:05 51°16.736 2°52.062 -999 0.063613 0.36502 -0.93092
2008-12-17 08:33:10 51°16.751 2°52.049 -999 0.063613 0.36502 -0.93092
2008-12-17 08:33:15 51°16.766 2°52.036 -999 0.063613 0.36502 -0.93092
2008-12-17 08:33:20 51°16.781 2°52.024 -999 0.063613 0.36502 -0.93092
2008-12-17 08:33:25 51°16.797 2°52.012 -999 0.063613 0.36502 -0.93092
2008-12-17 08:33:30 51°16.812 2°52 -999 0.063613 0.36502 -0.93092
2008-12-17 08:33:35 51°16.827 2°51.988 -999 0.063613 0.36502 -0.93092
2008-12-17 08:33:40 51°16.843 2°51.976 -999 0.063613 0.36502 -0.93092
2008-12-17 08:33:45 51°16.858 2°51.965 -999 0.063613 0.365013 -0.93092
2008-12-17 08:33:50 51°16.873 2°51.954 -999 0.063613 0.365013 -0.93092
2008-12-17 08:33:55 51°16.889 2°51.942 -999 0.063613 0.365013 -0.93092
2008-12-17 08:34:00 51°16.904 2°51.932 -999 0.063613 0.365013 -0.93092
2008-12-17 08:34:05 51°16.92 2°51.92 -999 0.063613 0.365006 -0.93092
2008-12-17 08:34:10 51°16.935 2°51.909 -999 0.063613 0.365006 -0.93092
2008-12-17 08:34:15 51°16.95 2°51.898 -999 0.063613 0.365013 -0.93092
2008-12-17 08:34:20 51°16.966 2°51.886 -999 0.063613 0.364999 -0.93092
2008-12-17 08:34:25 51°16.981 2°51.876 -999 0.063613 0.365006 -0.896096
2008-12-17 08:34:30 51°16.997 2°51.865 -999 0.063613 0.365006 -0.896096
2008-12-17 08:34:35 51°17.012 2°51.854 -999 0.063613 0.365006 -0.93092
2008-12-17 08:34:40 51°17.028 2°51.842 -999 0.063613 0.365013 -0.896096
2008-12-17 08:34:45 51°17.043 2°51.831 -999 0.063613 0.365006 -0.93092
2008-12-17 08:34:50 51°17.059 2°51.82 -999 0.063613 0.365006 -0.93092
2008-12-17 08:34:55 51°17.074 2°51.809 -999 0.063613 0.364999 -0.93092
2008-12-17 08:35:00 51°17.089 2°51.797 -999 0.063613 0.364999 -0.93092
2008-12-17 08:35:05 51°17.105 2°51.786 -999 0.063613 0.365006 -0.93092
2008-12-17 08:35:10 51°17.12 2°51.775 -999 0.063613 0.364999 -0.93092
2008-12-17 08:35:15 51°17.135 2°51.764 -999 0.063613 0.364999 -0.93092
2008-12-17 08:35:20 51°17.151 2°51.753 -999 0.063613 0.364992 -0.93092
2008-12-17 08:35:25 51°17.166 2°51.743 -999 0.063613 0.364992 -0.93092
2008-12-17 08:35:30 51°17.182 2°51.732 -999 0.063613 0.364992 -0.93092
2008-12-17 08:35:35 51°17.198 2°51.723 -999 0.063613 0.364992 -0.896096
2008-12-17 08:35:40 51°17.213 2°51.714 -999 0.063613 0.364999 -0.93092
2008-12-17 08:35:45 51°17.229 2°51.704 -999 0.063613 0.364992 -0.93092
2008-12-17 08:35:50 51°17.245 2°51.696 -999 0.063613 0.364999 -0.93092
2008-12-17 08:35:55 51°17.261 2°51.686 -999 0.063613 0.364999 -0.93092
2008-12-17 08:36:00 51°17.277 2°51.678 -999 0.063613 0.364999 -0.93092
2008-12-17 08:36:05 51°17.292 2°51.669 -999 0.063613 0.364992 -0.93092
2008-12-17 08:36:10 51°17.308 2°51.66 -999 0.063613 0.364992 -0.93092
2008-12-17 08:36:15 51°17.324 2°51.651 -999 0.063613 0.364999 -0.896096
2008-12-17 08:36:20 51°17.34 2°51.642 -999 0.063613 0.364986 -0.93092
2008-12-17 08:36:25 51°17.356 2°51.636 -999 0.063613 0.364986 -0.93092
2008-12-17 08:36:30 51°17.373 2°51.631 -999 0.063613 0.364986 -0.93092
2008-12-17 08:36:35 51°17.389 2°51.626 -999 0.063613 0.364986 -0.896096
2008-12-17 08:36:40 51°17.405 2°51.621 -999 0.063613 0.364986 -0.896096
2008-12-17 08:36:45 51°17.421 2°51.618 -999 0.063613 0.364986 -0.93092
2008-12-17 08:36:50 51°17.438 2°51.615 -999 0.063613 0.364986 -0.93092
2008-12-17 08:36:55 51°17.454 2°51.612 -999 0.063613 0.364986 -0.93092
2008-12-17 08:37:00 51°17.47 2°51.61 -999 0.063613 0.364986 -0.93092
2008-12-17 08:37:05 51°17.487 2°51.608 -999 0.063613 0.364992 -0.896096
2008-12-17 08:37:10 51°17.503 2°51.606 -999 0.063613 0.364992 -0.93092
2008-12-17 08:37:15 51°17.52 2°51.604 -999 0.063613 0.364986 -0.93092
2008-12-17 08:37:20 51°17.536 2°51.603 -999 0.063613 0.364992 -0.93092
2008-12-17 08:37:25 51°17.553 2°51.6 -999 0.063613 0.364986 -0.93092
2008-12-17 08:37:30 51°17.569 2°51.599 -999 0.063613 0.364986 -0.93092
2008-12-17 08:37:35 51°17.585 2°51.597 -999 0.063613 0.364992 -0.93092
2008-12-17 08:37:40 51°17.601 2°51.595 -999 0.063613 0.364986 -0.896096
2008-12-17 08:37:45 51°17.618 2°51.594 -999 0.063613 0.364986 -0.93092
2008-12-17 08:37:50 51°17.634 2°51.592 -999 0.063613 0.364979 -0.896096
2008-12-17 08:37:55 51°17.651 2°51.591 -999 0.063613 0.364979 -0.93092
2008-12-17 08:37:59 51°17.664 2°51.59 -999 0.063613 0.364979 -0.93092
2008-12-17 08:38:05 51°17.683 2°51.59 -999 0.063613 0.364979 -0.93092
2008-12-17 08:38:10 51°17.7 2°51.588 -999 0.063613 0.364979 -0.93092
2008-12-17 08:38:15 51°17.716 2°51.587 -999 0.063613 0.364992 -0.93092
2008-12-17 08:38:19 51°17.729 2°51.585 -999 0.063613 0.364979 -0.93092
2008-12-17 08:38:25 51°17.749 2°51.584 -999 0.063613 0.364979 -0.93092
2008-12-17 08:38:30 51°17.765 2°51.582 -999 0.063613 0.364979 -0.93092
2008-12-17 08:38:35 51°17.782 2°51.581 -999 0.063613 0.364979 -0.93092
2008-12-17 08:38:39 51°17.795 2°51.579 -999 0.063613 0.364979 -0.896096
2008-12-17 08:38:45 51°17.815 2°51.578 -999 0.063613 0.364979 -0.93092
2008-12-17 08:38:50 51°17.831 2°51.577 -999 0.063613 0.364972 -0.93092
2008-12-17 08:38:55 51°17.848 2°51.575 -999 0.063613 0.364972 -0.93092
2008-12-17 08:38:59 51°17.861 2°51.574 -999 0.063613 0.364972 -0.93092
2008-12-17 08:39:05 51°17.881 2°51.573 -999 0.063613 0.364965 -0.93092
2008-12-17 08:39:10 51°17.897 2°51.572 -999 0.063613 0.364965 -0.93092
2008-12-17 08:39:15 51°17.914 2°51.572 -999 0.063613 0.364972 -0.93092
2008-12-17 08:39:19 51°17.927 2°51.57 -999 0.063613 0.364965 -0.93092
2008-12-17 08:39:25 51°17.946 2°51.57 -999 0.063613 0.364965 -0.93092
2008-12-17 08:39:30 51°17.963 2°51.569 -999 0.063613 0.364965 -0.93092
2008-12-17 08:39:35 51°17.98 2°51.569 -999 0.063613 0.364965 -0.93092
2008-12-17 08:39:39 51°17.993 2°51.568 -999 0.063613 0.364965 -0.93092
2008-12-17 08:39:45 51°18.013 2°51.568 -999 0.063613 0.364965 -0.93092
2008-12-17 08:39:50 51°18.029 2°51.568 -999 0.063613 0.364972 -0.93092
2008-12-17 08:39:55 51°18.046 2°51.567 -999 0.063613 0.364965 -0.93092
2008-12-17 08:39:59 51°18.059 2°51.567 -999 0.063613 0.364965 -0.93092
2008-12-17 08:40:05 51°18.079 2°51.566 -999 0.063613 0.364965 -0.896096
2008-12-17 08:40:10 51°18.095 2°51.565 -999 0.063613 0.364958 -0.896096
2008-12-17 08:40:15 51°18.112 2°51.564 -999 0.063613 0.364958 -0.93092
2008-12-17 08:40:19 51°18.125 2°51.563 -999 0.063613 0.364965 -0.93092
2008-12-17 08:40:25 51°18.145 2°51.561 -999 0.063613 0.364951 -0.93092
2008-12-17 08:40:30 51°18.161 2°51.56 -999 0.063613 0.364951 -0.93092
2008-12-17 08:40:35 51°18.178 2°51.559 -999 0.063613 0.364951 -0.93092
2008-12-17 08:40:39 51°18.191 2°51.558 -999 0.063613 0.364944 -0.93092
2008-12-17 08:40:45 51°18.21 2°51.557 -999 0.063613 0.364951 -0.896096
2008-12-17 08:40:50 51°18.227 2°51.556 -999 0.063613 0.364944 -0.93092
2008-12-17 08:40:55 51°18.243 2°51.556 -999 0.063613 0.364951 -0.93092
2008-12-17 08:40:59 51°18.256 2°51.555 -999 0.063613 0.364951 -0.93092
2008-12-17 08:41:05 51°18.276 2°51.554 -999 0.063613 0.364951 -0.896096
2008-12-17 08:41:10 51°18.292 2°51.552 -999 0.063613 0.364951 -0.93092
2008-12-17 08:41:15 51°18.308 2°51.551 -999 0.063613 0.364951 -0.93092
2008-12-17 08:41:19 51°18.321 2°51.549 -999 0.063613 0.364951 -0.93092
2008-12-17 08:41:25 51°18.341 2°51.548 -999 0.063613 0.364951 -0.93092
2008-12-17 08:41:30 51°18.357 2°51.547 -999 0.063613 0.364951 -0.93092
2008-12-17 08:41:35 51°18.374 2°51.546 -999 0.063613 0.364944 -0.93092
2008-12-17 08:41:39 51°18.387 2°51.545 -999 0.063613 0.364944 -0.93092
2008-12-17 08:41:45 51°18.407 2°51.543 -999 0.063613 0.364944 -0.93092
2008-12-17 08:41:50 51°18.423 2°51.542 -999 0.063613 0.364944 -0.93092
2008-12-17 08:41:55 51°18.439 2°51.54 -999 0.063613 0.364944 -0.93092
2008-12-17 08:41:59 51°18.452 2°51.539 -999 0.063613 0.364944 -0.93092
2008-12-17 08:42:04 51°18.468 2°51.537 -999 0.063613 0.364937 -0.93092
2008-12-17 08:42:10 51°18.488 2°51.535 -999 0.063613 0.364944 -0.93092
2008-12-17 08:42:15 51°18.505 2°51.533 -999 0.063613 0.364937 -0.896096
2008-12-17 08:42:20 51°18.521 2°51.531 -999 0.063613 0.364944 -0.93092
2008-12-17 08:42:25 51°18.538 2°51.529 -999 0.063613 0.364944 -0.93092
2008-12-17 08:42:30 51°18.554 2°51.528 -999 0.063613 0.364944 -0.93092
2008-12-17 08:42:35 51°18.571 2°51.525 -999 0.063613 0.364944 -0.93092
2008-12-17 08:42:40 51°18.587 2°51.523 -999 0.063613 0.364944 -0.896096
2008-12-17 08:42:45 51°18.603 2°51.521 -999 0.063613 0.364944 -0.896096
2008-12-17 08:42:50 51°18.62 2°51.518 -999 0.063613 0.364944 -0.93092
2008-12-17 08:42:55 51°18.636 2°51.515 -999 0.063613 0.364937 -0.93092
2008-12-17 08:43:00 51°18.653 2°51.513 -999 0.063613 0.364937 -0.93092
2008-12-17 08:43:05 51°18.669 2°51.511 -999 0.063613 0.364937 -0.93092
2008-12-17 08:43:10 51°18.685 2°51.509 -999 0.063613 0.36493 -0.896096
2008-12-17 08:43:15 51°18.702 2°51.507 -999 0.063613 0.364937 -0.93092
2008-12-17 08:43:20 51°18.718 2°51.505 -999 0.063613 0.364937 -0.896096
2008-12-17 08:43:25 51°18.735 2°51.503 -999 0.063613 0.364937 -0.93092
2008-12-17 08:43:30 51°18.752 2°51.501 -999 0.063613 0.364937 -0.93092
2008-12-17 08:43:35 51°18.768 2°51.499 -999 0.063613 0.36493 -0.93092
2008-12-17 08:43:40 51°18.785 2°51.498 -999 0.063613 0.364937 -0.93092
2008-12-17 08:43:45 51°18.801 2°51.496 -999 0.063613 0.36493 -0.93092
2008-12-17 08:43:50 51°18.818 2°51.495 -999 0.063613 0.36493 -0.93092
2008-12-17 08:43:55 51°18.834 2°51.494 -999 0.063613 0.36493 -0.896096
2008-12-17 08:44:00 51°18.851 2°51.494 -999 0.063613 0.36493 -0.896096
2008-12-17 08:44:05 51°18.867 2°51.493 -999 0.063613 0.36493 -0.896096
2008-12-17 08:44:10 51°18.883 2°51.492 -999 0.063613 0.36493 -0.93092
2008-12-17 08:44:15 51°18.9 2°51.492 -999 0.063613 0.36493 -0.93092
2008-12-17 08:44:20 51°18.916 2°51.491 -999 0.063613 0.36493 -0.93092
2008-12-17 08:44:25 51°18.933 2°51.49 -999 0.063613 0.36493 -0.93092
2008-12-17 08:44:30 51°18.949 2°51.489 -999 0.063613 0.36493 -0.93092
2008-12-17 08:44:35 51°18.966 2°51.489 -999 0.063613 0.364924 -0.93092
2008-12-17 08:44:40 51°18.982 2°51.488 -999 0.063613 0.36493 -0.93092
2008-12-17 08:44:45 51°18.998 2°51.487 -999 0.063613 0.36493 -0.896096
2008-12-17 08:44:50 51°19.015 2°51.486 -999 0.063613 0.364924 -0.93092
2008-12-17 08:44:55 51°19.032 2°51.485 -999 0.063613 0.364924 -0.93092
2008-12-17 08:45:00 51°19.048 2°51.484 -999 0.063613 0.364924 -0.93092
2008-12-17 08:45:05 51°19.065 2°51.484 -999 0.063613 0.364924 -0.93092
2008-12-17 08:45:10 51°19.081 2°51.483 -999 0.063613 0.364924 -0.896096
2008-12-17 08:45:15 51°19.098 2°51.482 -999 0.063613 0.364924 -0.896096
2008-12-17 08:45:20 51°19.114 2°51.481 -999 0.063613 0.364924 -0.896096
2008-12-17 08:45:25 51°19.131 2°51.48 -999 0.063613 0.364924 -0.93092
2008-12-17 08:45:30 51°19.147 2°51.479 -999 0.063613 0.364924 -0.93092
2008-12-17 08:45:35 51°19.164 2°51.477 -999 0.063613 0.364917 -0.93092
2008-12-17 08:45:40 51°19.18 2°51.477 -999 0.063613 0.364917 -0.93092
2008-12-17 08:45:45 51°19.197 2°51.476 -999 0.063613 0.364917 -0.93092
2008-12-17 08:45:50 51°19.214 2°51.475 -999 0.063613 0.364924 -0.93092
2008-12-17 08:45:55 51°19.23 2°51.474 -999 0.063613 0.364924 -0.93092
2008-12-17 08:46:00 51°19.247 2°51.472 -999 0.063613 0.364924 -0.93092
2008-12-17 08:46:05 51°19.263 2°51.471 -999 0.063613 0.364917 -0.93092
2008-12-17 08:46:10 51°19.28 2°51.47 -999 0.063613 0.364917 -0.93092
2008-12-17 08:46:15 51°19.296 2°51.468 -999 0.063613 0.364917 -0.93092
2008-12-17 08:46:20 51°19.313 2°51.468 -999 0.063613 0.36491 -0.93092
2008-12-17 08:46:25 51°19.33 2°51.467 -999 0.063613 0.36491 -0.93092
2008-12-17 08:46:30 51°19.347 2°51.466 -999 0.063613 0.36491 -0.93092
2008-12-17 08:46:35 51°19.363 2°51.465 -999 0.063613 0.364917 -0.93092
2008-12-17 08:46:40 51°19.38 2°51.464 -999 0.063613 0.36491 -0.93092
2008-12-17 08:46:45 51°19.397 2°51.463 -999 0.063613 0.36491 -0.93092
2008-12-17 08:46:50 51°19.413 2°51.462 -999 0.063613 0.364917 -0.93092
2008-12-17 08:46:55 51°19.43 2°51.461 -999 0.063613 0.36491 -0.93092
2008-12-17 08:47:00 51°19.447 2°51.46 -999 0.063613 0.36491 -0.93092
2008-12-17 08:47:05 51°19.463 2°51.458 -999 0.063613 0.36491 -0.93092
2008-12-17 08:47:10 51°19.48 2°51.457 -999 0.063613 0.364903 -0.93092
2008-12-17 08:47:15 51°19.497 2°51.456 -999 0.063613 0.364903 -0.93092
2008-12-17 08:47:20 51°19.514 2°51.456 -999 0.063613 0.364903 -0.93092
2008-12-17 08:47:25 51°19.53 2°51.455 -999 0.063613 0.364903 -0.93092
2008-12-17 08:47:30 51°19.547 2°51.454 -999 0.063613 0.364903 -0.93092
2008-12-17 08:47:35 51°19.564 2°51.453 -999 0.063613 0.364903 -0.93092
2008-12-17 08:47:40 51°19.581 2°51.452 -999 0.063613 0.364903 -0.93092
2008-12-17 08:47:45 51°19.597 2°51.45 -999 0.063613 0.364903 -0.93092
2008-12-17 08:47:50 51°19.614 2°51.45 -999 0.063613 0.364896 -0.93092
2008-12-17 08:47:55 51°19.63 2°51.448 -999 0.063613 0.364896 -0.93092
2008-12-17 08:48:00 51°19.647 2°51.447 -999 0.063613 0.364896 -0.93092
2008-12-17 08:48:05 51°19.664 2°51.447 -999 0.063613 0.364896 -0.93092
2008-12-17 08:48:10 51°19.68 2°51.446 -999 0.063613 0.364896 -0.93092
2008-12-17 08:48:15 51°19.697 2°51.445 -999 0.063613 0.364896 -0.896096
2008-12-17 08:48:20 51°19.713 2°51.444 -999 0.063613 0.364896 -0.93092
2008-12-17 08:48:25 51°19.73 2°51.443 -999 0.063613 0.364903 -0.93092
2008-12-17 08:48:30 51°19.746 2°51.442 -999 0.063613 0.364903 -0.93092
2008-12-17 08:48:35 51°19.763 2°51.441 -999 0.063613 0.364903 -0.93092
2008-12-17 08:48:40 51°19.779 2°51.438 -999 0.063613 0.364896 -0.93092
2008-12-17 08:48:45 51°19.796 2°51.437 -999 0.063613 0.364889 -0.93092
2008-12-17 08:48:50 51°19.813 2°51.435 -999 0.063613 0.364889 -0.93092
2008-12-17 08:48:55 51°19.829 2°51.434 -999 0.063613 0.364896 -0.93092
2008-12-17 08:49:00 51°19.846 2°51.432 -999 0.063613 0.364896 -0.93092
2008-12-17 08:49:05 51°19.863 2°51.43 -999 0.063613 0.364889 -0.93092
2008-12-17 08:49:10 51°19.879 2°51.428 -999 0.063613 0.364896 -0.93092
2008-12-17 08:49:15 51°19.896 2°51.426 -999 0.063613 0.364889 -0.93092
2008-12-17 08:49:20 51°19.913 2°51.423 -999 0.063613 0.364896 -0.93092
2008-12-17 08:49:25 51°19.929 2°51.42 -999 0.063613 0.364889 -0.93092
2008-12-17 08:49:30 51°19.946 2°51.417 -999 0.063613 0.364889 -0.93092
2008-12-17 08:49:35 51°19.962 2°51.415 -999 0.063613 0.364889 -0.896096
2008-12-17 08:49:40 51°19.979 2°51.413 -999 0.063613 0.364889 -0.93092
2008-12-17 08:49:45 51°19.995 2°51.411 -999 0.063613 0.364889 -0.93092
2008-12-17 08:49:50 51°20.012 2°51.408 -999 0.063613 0.364882 -0.93092
2008-12-17 08:49:55 51°20.028 2°51.406 -999 0.063613 0.364889 -0.93092
2008-12-17 08:50:00 51°20.045 2°51.404 -999 0.063613 0.364889 -0.93092
2008-12-17 08:50:05 51°20.061 2°51.402 -999 0.063613 0.364882 -0.93092
2008-12-17 08:50:10 51°20.077 2°51.399 -999 0.063613 0.364889 -0.93092
2008-12-17 08:50:15 51°20.094 2°51.397 -999 0.063613 0.364889 -0.93092
2008-12-17 08:50:20 51°20.11 2°51.395 -999 0.063613 0.364882 -0.93092
2008-12-17 08:50:25 51°20.127 2°51.393 -999 0.063613 0.364882 -0.93092
2008-12-17 08:50:30 51°20.143 2°51.391 -999 0.063613 0.364882 -0.93092
2008-12-17 08:50:35 51°20.16 2°51.389 -999 0.063613 0.364882 -0.93092
2008-12-17 08:50:40 51°20.176 2°51.387 -999 0.063613 0.364875 -0.93092
2008-12-17 08:50:45 51°20.193 2°51.386 -999 0.063613 0.364875 -0.93092
2008-12-17 08:50:50 51°20.209 2°51.385 -999 0.063613 0.364875 -0.93092
2008-12-17 08:50:55 51°20.225 2°51.384 -999 0.063613 0.364875 -0.93092
2008-12-17 08:51:00 51°20.242 2°51.384 -999 0.063613 0.364875 -0.93092
2008-12-17 08:51:05 51°20.258 2°51.383 -999 0.063613 0.364875 -0.93092
2008-12-17 08:51:10 51°20.275 2°51.382 -999 0.063613 0.364875 -0.93092
2008-12-17 08:51:15 51°20.291 2°51.381 -999 0.063613 0.364875 -0.93092
2008-12-17 08:51:20 51°20.308 2°51.38 -999 0.063613 0.364868 -0.93092
2008-12-17 08:51:25 51°20.325 2°51.379 -999 0.063613 0.364868 -0.896096
2008-12-17 08:51:30 51°20.341 2°51.378 -999 0.063613 0.364868 -0.896096
2008-12-17 08:51:35 51°20.358 2°51.377 -999 0.063613 0.364868 -0.93092
2008-12-17 08:51:40 51°20.374 2°51.376 -999 0.063613 0.364868 -0.93092
2008-12-17 08:51:45 51°20.391 2°51.375 -999 0.063613 0.364862 -0.896096
2008-12-17 08:51:50 51°20.407 2°51.374 -999 0.063613 0.364862 -0.93092
2008-12-17 08:51:55 51°20.424 2°51.374 -999 0.063613 0.364868 -0.896096
2008-12-17 08:52:00 51°20.44 2°51.373 -999 0.063613 0.364868 -0.896096
2008-12-17 08:52:05 51°20.457 2°51.372 -999 0.063613 0.364862 -0.93092
2008-12-17 08:52:10 51°20.474 2°51.37 -999 0.063613 0.364868 -0.93092
2008-12-17 08:52:15 51°20.49 2°51.369 -999 0.063613 0.364862 -0.93092
2008-12-17 08:52:20 51°20.507 2°51.367 -999 0.063613 0.364855 -0.93092
2008-12-17 08:52:25 51°20.523 2°51.367 -999 0.063613 0.364862 -0.896096
2008-12-17 08:52:30 51°20.54 2°51.366 -999 0.063613 0.364862 -0.896096
2008-12-17 08:52:35 51°20.556 2°51.365 -999 0.063613 0.364862 -0.93092
2008-12-17 08:52:40 51°20.573 2°51.364 -999 0.063613 0.364868 -0.93092
2008-12-17 08:52:45 51°20.589 2°51.362 -999 0.063613 0.364868 -0.896096
2008-12-17 08:52:50 51°20.606 2°51.36 -999 0.063613 0.364862 -0.93092
2008-12-17 08:52:55 51°20.622 2°51.359 -999 0.063613 0.364862 -0.93092
2008-12-17 08:53:00 51°20.638 2°51.357 -999 0.063613 0.364862 -0.93092
2008-12-17 08:53:05 51°20.655 2°51.355 -999 0.063613 0.364862 -0.93092
2008-12-17 08:53:10 51°20.671 2°51.353 -999 0.063613 0.364862 -0.93092
2008-12-17 08:53:15 51°20.688 2°51.351 -999 0.063613 0.364855 -0.93092
2008-12-17 08:53:19 51°20.701 2°51.35 -999 0.063613 0.364862 -0.93092
2008-12-17 08:53:25 51°20.72 2°51.348 -999 0.063613 0.364855 -0.93092
2008-12-17 08:53:30 51°20.736 2°51.346 -999 0.063613 0.364855 -0.93092
2008-12-17 08:53:35 51°20.753 2°51.345 -999 0.063613 0.364855 -0.896096
2008-12-17 08:53:39 51°20.766 2°51.344 -999 0.063613 0.364855 -0.93092
2008-12-17 08:53:45 51°20.786 2°51.342 -999 0.063613 0.364855 -0.93092
2008-12-17 08:53:50 51°20.802 2°51.34 -999 0.063613 0.364855 -0.93092
2008-12-17 08:53:55 51°20.818 2°51.339 -999 0.063613 0.364855 -0.93092
2008-12-17 08:53:59 51°20.831 2°51.337 -999 0.063613 0.364855 -0.93092
2008-12-17 08:54:05 51°20.851 2°51.336 -999 0.063613 0.364855 -0.93092
2008-12-17 08:54:10 51°20.867 2°51.334 -999 0.063613 0.364855 -0.93092
2008-12-17 08:54:15 51°20.884 2°51.333 -999 0.063613 0.364855 -0.93092
2008-12-17 08:54:19 51°20.897 2°51.331 -999 0.063613 0.364855 -0.93092
2008-12-17 08:54:25 51°20.916 2°51.33 -999 0.063613 0.364855 -0.93092
2008-12-17 08:54:30 51°20.933 2°51.328 -999 0.063613 0.364855 -0.93092
2008-12-17 08:54:35 51°20.949 2°51.327 -999 0.063613 0.364855 -0.93092
2008-12-17 08:54:39 51°20.962 2°51.325 -999 0.063613 0.364848 -0.93092
2008-12-17 08:54:45 51°20.982 2°51.324 -999 0.063613 0.364848 -0.93092
2008-12-17 08:54:50 51°20.998 2°51.323 -999 0.063613 0.364848 -0.93092
2008-12-17 08:54:55 51°21.015 2°51.321 -999 0.063613 0.364848 -0.896096
2008-12-17 08:54:59 51°21.028 2°51.32 -999 0.063613 0.364848 -0.896096
2008-12-17 08:55:05 51°21.047 2°51.319 -999 0.063613 0.364841 -0.93092
2008-12-17 08:55:10 51°21.064 2°51.32 -999 0.063613 0.364841 -0.93092
2008-12-17 08:55:15 51°21.08 2°51.32 -999 0.063613 0.364848 -0.93092
2008-12-17 08:55:19 51°21.093 2°51.319 -999 0.063613 0.364848 -0.896096
2008-12-17 08:55:25 51°21.113 2°51.318 -999 0.063613 0.364848 -0.93092
2008-12-17 08:55:30 51°21.129 2°51.317 -999 0.063613 0.364848 -0.93092
2008-12-17 08:55:35 51°21.145 2°51.317 -999 0.063613 0.364841 -0.93092
2008-12-17 08:55:39 51°21.158 2°51.316 -999 0.063613 0.364834 -0.93092
2008-12-17 08:55:45 51°21.178 2°51.317 -999 0.063613 0.364841 -0.93092
2008-12-17 08:55:50 51°21.194 2°51.317 -999 0.063613 0.364841 -0.93092
2008-12-17 08:55:55 51°21.211 2°51.317 -999 0.063613 0.364834 -0.93092
2008-12-17 08:55:59 51°21.224 2°51.317 -999 0.063613 0.364834 -0.93092
2008-12-17 08:56:05 51°21.243 2°51.318 -999 0.063613 0.364848 -0.93092
2008-12-17 08:56:10 51°21.26 2°51.317 -999 0.063613 0.364841 -0.93092
2008-12-17 08:56:15 51°21.276 2°51.317 -999 0.063613 0.364841 -0.93092
2008-12-17 08:56:19 51°21.289 2°51.316 -999 0.063613 0.364841 -0.93092
2008-12-17 08:56:25 51°21.308 2°51.315 -999 0.063613 0.364841 -0.93092
2008-12-17 08:56:30 51°21.325 2°51.314 -999 0.063613 0.364841 -0.93092
2008-12-17 08:56:35 51°21.341 2°51.313 -999 0.063613 0.364834 -0.93092
2008-12-17 08:56:39 51°21.354 2°51.312 -999 0.063613 0.364834 -0.93092
2008-12-17 08:56:45 51°21.374 2°51.311 -999 0.063613 0.364834 -0.93092
2008-12-17 08:56:50 51°21.39 2°51.31 -999 0.063613 0.364834 -0.93092
2008-12-17 08:56:55 51°21.406 2°51.308 -999 0.063613 0.364834 -0.93092
2008-12-17 08:56:59 51°21.419 2°51.308 -999 0.063613 0.364834 -0.93092
2008-12-17 08:57:05 51°21.438 2°51.306 -999 0.063613 0.364834 -0.896096
2008-12-17 08:57:10 51°21.454 2°51.306 -999 0.063613 0.364834 -0.93092
2008-12-17 08:57:15 51°21.471 2°51.304 -999 0.063613 0.364834 -0.93092
2008-12-17 08:57:19 51°21.484 2°51.303 -999 0.063613 0.364834 -0.93092
2008-12-17 08:57:24 51°21.5 2°51.302 -999 0.063613 0.364834 -0.93092
2008-12-17 08:57:30 51°21.519 2°51.301 -999 0.063613 0.364834 -0.93092
2008-12-17 08:57:35 51°21.536 2°51.3 -999 0.063613 0.364827 -0.93092
2008-12-17 08:57:39 51°21.549 2°51.3 -999 0.063613 0.364827 -0.93092
2008-12-17 08:57:45 51°21.568 2°51.299 -999 0.063613 0.364827 -0.93092
2008-12-17 08:57:50 51°21.585 2°51.3 -999 0.063613 0.364827 -0.93092
2008-12-17 08:57:55 51°21.601 2°51.3 -999 0.063613 0.364827 -0.93092
2008-12-17 08:57:59 51°21.614 2°51.3 -999 0.063613 0.364827 -0.93092
2008-12-17 08:58:04 51°21.63 2°51.3 -999 0.063613 0.36482 -0.896096
2008-12-17 08:58:10 51°21.65 2°51.301 -999 0.063613 0.364827 -0.896096
2008-12-17 08:58:15 51°21.666 2°51.301 -999 0.063613 0.36482 -0.93092
2008-12-17 08:58:19 51°21.68 2°51.301 -999 0.063613 0.364827 -0.93092
2008-12-17 08:58:24 51°21.696 2°51.302 -999 0.063613 0.36482 -0.93092
2008-12-17 08:58:30 51°21.716 2°51.302 -999 0.063613 0.36482 -0.93092
2008-12-17 08:58:35 51°21.732 2°51.302 -999 0.063613 0.36482 -0.93092
2008-12-17 08:58:40 51°21.749 2°51.302 -999 0.063613 0.36482 -0.93092
2008-12-17 08:58:44 51°21.762 2°51.302 -999 0.063613 0.36482 -0.93092
2008-12-17 08:58:50 51°21.782 2°51.302 -999 0.063613 0.36482 -0.93092
2008-12-17 08:58:55 51°21.798 2°51.301 -999 0.063613 0.364813 -0.93092
2008-12-17 08:58:59 51°21.812 2°51.301 -999 0.063613 0.364813 -0.93092
2008-12-17 08:59:05 51°21.831 2°51.301 -999 0.063613 0.364813 -0.93092
2008-12-17 08:59:10 51°21.848 2°51.301 -999 0.063613 0.364813 -0.93092
2008-12-17 08:59:15 51°21.864 2°51.3 -999 0.063613 0.364813 -0.93092
2008-12-17 08:59:19 51°21.878 2°51.3 -999 0.063613 0.364813 -0.93092
2008-12-17 08:59:25 51°21.897 2°51.3 -999 0.063613 0.36482 -0.93092
2008-12-17 08:59:30 51°21.914 2°51.3 -999 0.063613 0.36482 -0.93092
2008-12-17 08:59:35 51°21.931 2°51.3 -999 0.063613 0.364813 -0.93092
2008-12-17 08:59:39 51°21.944 2°51.3 -999 0.063613 0.364813 -0.93092
2008-12-17 08:59:45 51°21.964 2°51.299 -999 0.063613 0.364813 -0.93092
2008-12-17 08:59:50 51°21.98 2°51.299 -999 0.063613 0.364813 -0.93092
2008-12-17 08:59:55 51°21.997 2°51.298 -999 0.063613 0.364806 -0.93092
2008-12-17 08:59:59 51°22.01 2°51.298 -999 0.063613 0.364806 -0.93092
2008-12-17 09:00:05 51°22.03 2°51.297 -999 0.063613 0.364813 -0.93092
2008-12-17 09:00:10 51°22.047 2°51.296 -999 0.063613 0.364813 -0.93092
2008-12-17 09:00:15 51°22.063 2°51.295 -999 0.063613 0.364813 -0.93092
2008-12-17 09:00:19 51°22.076 2°51.294 -999 0.063613 0.364806 -0.93092
2008-12-17 09:00:24 51°22.093 2°51.292 -999 0.063613 0.364806 -0.93092
2008-12-17 09:00:30 51°22.113 2°51.29 -999 0.063613 0.364806 -0.93092
2008-12-17 09:00:35 51°22.129 2°51.288 -999 0.063613 0.3648 -0.896096
2008-12-17 09:00:39 51°22.143 2°51.287 -999 0.063613 0.3648 -0.896096
2008-12-17 09:00:45 51°22.162 2°51.286 -999 0.063613 0.3648 -0.93092
2008-12-17 09:00:50 51°22.179 2°51.285 -999 0.063613 0.364806 -0.93092
2008-12-17 09:00:55 51°22.195 2°51.283 -999 0.063613 0.364806 -0.896096
2008-12-17 09:00:59 51°22.209 2°51.282 -999 0.063613 0.364806 -0.896096
2008-12-17 09:01:04 51°22.225 2°51.281 -999 0.063613 0.3648 -0.93092
2008-12-17 09:01:10 51°22.245 2°51.279 -999 0.063613 0.364806 -0.93092
2008-12-17 09:01:15 51°22.262 2°51.278 -999 0.063613 0.364806 -0.93092
2008-12-17 09:01:20 51°22.278 2°51.277 -999 0.063613 0.3648 -0.93092
2008-12-17 09:01:24 51°22.291 2°51.276 -999 0.063613 0.3648 -0.93092
2008-12-17 09:01:30 51°22.311 2°51.274 -999 0.063613 0.3648 -0.93092
2008-12-17 09:01:35 51°22.328 2°51.273 -999 0.063613 0.364793 -0.93092
2008-12-17 09:01:40 51°22.344 2°51.272 -999 0.063613 0.3648 -0.93092
2008-12-17 09:01:45 51°22.361 2°51.271 -999 0.063613 0.364793 -0.93092
2008-12-17 09:01:50 51°22.378 2°51.27 -999 0.063613 0.364793 -0.93092
2008-12-17 09:01:55 51°22.394 2°51.269 -999 0.063613 0.364793 -0.93092
2008-12-17 09:01:59 51°22.407 2°51.268 -999 0.063613 0.364793 -0.93092
2008-12-17 09:02:04 51°22.424 2°51.267 -999 0.063613 0.3648 -0.93092
2008-12-17 09:02:10 51°22.443 2°51.265 -999 0.063613 0.3648 -0.93092
2008-12-17 09:02:15 51°22.46 2°51.263 -999 0.063613 0.364793 -0.93092
2008-12-17 09:02:20 51°22.477 2°51.262 -999 0.063613 0.364786 -0.896096
2008-12-17 09:02:24 51°22.49 2°51.26 -999 0.063613 0.364786 -0.93092
2008-12-17 09:02:30 51°22.51 2°51.259 -999 0.063613 0.364786 -0.93092
2008-12-17 09:02:35 51°22.526 2°51.257 -999 0.063613 0.364786 -0.93092
2008-12-17 09:02:39 51°22.539 2°51.256 -999 0.063613 0.364793 -0.93092
2008-12-17 09:02:44 51°22.556 2°51.255 -999 0.063613 0.364786 -0.93092
2008-12-17 09:02:50 51°22.576 2°51.254 -999 0.063613 0.364786 -0.93092
2008-12-17 09:02:55 51°22.593 2°51.252 -999 0.063613 0.364793 -0.93092
2008-12-17 09:02:59 51°22.606 2°51.251 -999 0.063613 0.364793 -0.93092
2008-12-17 09:03:04 51°22.623 2°51.251 -999 0.063613 0.364786 -0.93092
2008-12-17 09:03:10 51°22.643 2°51.249 -999 0.063613 0.364793 -0.93092
2008-12-17 09:03:15 51°22.659 2°51.248 -999 0.063613 0.364786 -0.93092
2008-12-17 09:03:19 51°22.672 2°51.247 -999 0.063613 0.364786 -0.93092
2008-12-17 09:03:24 51°22.689 2°51.246 -999 0.063613 0.364786 -0.93092
2008-12-17 09:03:30 51°22.708 2°51.244 -999 0.063613 0.364786 -0.93092
2008-12-17 09:03:35 51°22.725 2°51.243 -999 0.063613 0.364779 -0.93092
2008-12-17 09:03:40 51°22.741 2°51.242 -999 0.063613 0.364786 -0.93092
2008-12-17 09:03:44 51°22.755 2°51.24 -999 0.063613 0.364779 -0.93092
2008-12-17 09:03:50 51°22.775 2°51.238 -999 0.063613 0.364779 -0.896096
2008-12-17 09:03:55 51°22.791 2°51.235 -999 0.063613 0.364779 -0.93092
2008-12-17 09:04:00 51°22.808 2°51.235 -999 0.063613 0.364779 -0.93092
2008-12-17 09:04:05 51°22.825 2°51.233 -999 0.063613 0.364779 -0.93092
2008-12-17 09:04:10 51°22.841 2°51.233 -999 0.063613 0.364779 -0.93092
2008-12-17 09:04:15 51°22.858 2°51.231 -999 0.063613 0.364779 -0.93092
2008-12-17 09:04:19 51°22.871 2°51.231 -999 0.063613 0.364779 -0.93092
2008-12-17 09:04:25 51°22.891 2°51.23 -999 0.063613 0.364779 -0.93092
2008-12-17 09:04:30 51°22.908 2°51.229 -999 0.063613 0.364779 -0.93092
2008-12-17 09:04:35 51°22.924 2°51.228 -999 0.063613 0.364779 -0.93092
2008-12-17 09:04:40 51°22.941 2°51.227 -999 0.063613 0.364779 -0.93092
2008-12-17 09:04:45 51°22.958 2°51.225 -999 0.063613 0.364772 -0.93092
2008-12-17 09:04:50 51°22.974 2°51.225 -999 0.063613 0.364772 -0.93092
2008-12-17 09:04:55 51°22.991 2°51.223 -999 0.063613 0.364772 -0.93092
2008-12-17 09:05:00 51°23.007 2°51.222 -999 0.063613 0.364772 -0.93092
2008-12-17 09:05:05 51°23.024 2°51.221 -999 0.063613 0.364779 -0.93092
2008-12-17 09:05:10 51°23.041 2°51.219 -999 0.063613 0.364772 -0.93092
2008-12-17 09:05:15 51°23.058 2°51.218 -999 0.063613 0.364772 -0.93092
2008-12-17 09:05:20 51°23.074 2°51.217 -999 0.063613 0.364765 -0.93092
2008-12-17 09:05:25 51°23.091 2°51.216 -999 0.063613 0.364765 -0.93092
2008-12-17 09:05:30 51°23.107 2°51.214 -999 0.063613 0.364765 -0.93092
2008-12-17 09:05:35 51°23.124 2°51.213 -999 0.063613 0.364772 -0.93092
2008-12-17 09:05:40 51°23.14 2°51.212 -999 0.063613 0.364765 -0.93092
2008-12-17 09:05:45 51°23.157 2°51.211 -999 0.063613 0.364765 -0.93092
2008-12-17 09:05:50 51°23.173 2°51.21 -999 0.063613 0.364765 -0.93092
2008-12-17 09:05:55 51°23.189 2°51.209 -999 0.063613 0.364765 -0.93092
2008-12-17 09:06:00 51°23.206 2°51.208 -999 0.063613 0.364765 -0.93092
2008-12-17 09:06:05 51°23.222 2°51.207 -999 0.063613 0.364765 -0.93092
2008-12-17 09:06:10 51°23.238 2°51.205 -999 0.063613 0.364765 -0.93092
2008-12-17 09:06:15 51°23.255 2°51.204 -999 0.063613 0.364765 -0.93092
2008-12-17 09:06:20 51°23.271 2°51.202 -999 0.063613 0.364765 -0.93092
2008-12-17 09:06:24 51°23.284 2°51.201 -999 0.063613 0.364758 -0.93092
2008-12-17 09:06:30 51°23.304 2°51.2 -999 0.063613 0.364758 -0.93092
2008-12-17 09:06:35 51°23.32 2°51.198 -999 0.063613 0.364758 -0.93092
2008-12-17 09:06:39 51°23.333 2°51.197 -999 0.063613 0.364758 -0.896096
2008-12-17 09:06:45 51°23.353 2°51.195 -999 0.063613 0.364758 -0.93092
2008-12-17 09:06:50 51°23.369 2°51.194 -999 0.063613 0.364751 -0.93092
2008-12-17 09:06:55 51°23.385 2°51.192 -999 0.063613 0.364751 -0.93092
2008-12-17 09:06:59 51°23.398 2°51.191 -999 0.063613 0.364751 -0.93092
2008-12-17 09:07:04 51°23.415 2°51.19 -999 0.063613 0.364751 -0.93092
2008-12-17 09:07:10 51°23.434 2°51.188 -999 0.063613 0.364751 -0.93092
2008-12-17 09:07:15 51°23.45 2°51.188 -999 0.063613 0.364751 -0.93092
2008-12-17 09:07:19 51°23.463 2°51.187 -999 0.063613 0.364751 -0.93092
2008-12-17 09:07:24 51°23.479 2°51.186 -999 0.063613 0.364751 -0.93092
2008-12-17 09:07:30 51°23.499 2°51.183 -999 0.063613 0.364751 -0.93092
2008-12-17 09:07:35 51°23.515 2°51.182 -999 0.063613 0.364751 -0.93092
2008-12-17 09:07:40 51°23.532 2°51.18 -999 0.063613 0.364745 -0.93092
2008-12-17 09:07:44 51°23.545 2°51.179 -999 0.063613 0.364751 -0.93092
2008-12-17 09:07:50 51°23.565 2°51.177 -999 0.063613 0.364745 -0.93092
2008-12-17 09:07:55 51°23.581 2°51.175 -999 0.063613 0.364745 -0.93092
2008-12-17 09:07:59 51°23.594 2°51.173 -999 0.063613 0.364745 -0.93092
2008-12-17 09:08:05 51°23.613 2°51.171 -999 0.063613 0.364745 -0.93092
2008-12-17 09:08:10 51°23.63 2°51.168 -999 0.063613 0.364745 -0.93092
2008-12-17 09:08:15 51°23.646 2°51.166 -999 0.063613 0.364738 -0.93092
2008-12-17 09:08:19 51°23.659 2°51.164 -999 0.063613 0.364731 -0.896096
2008-12-17 09:08:25 51°23.679 2°51.162 -999 0.063613 0.364731 -0.93092
2008-12-17 09:08:30 51°23.695 2°51.161 -999 0.063613 0.364731 -0.93092
2008-12-17 09:08:35 51°23.712 2°51.16 -999 0.063613 0.364745 -0.896096
2008-12-17 09:08:40 51°23.728 2°51.157 -999 0.063613 0.364738 -0.93092
2008-12-17 09:08:45 51°23.745 2°51.156 -999 0.063613 0.364745 -0.93092
2008-12-17 09:08:50 51°23.761 2°51.154 -999 0.063613 0.364745 -0.93092
2008-12-17 09:08:55 51°23.777 2°51.152 -999 0.063613 0.364745 -0.896096
2008-12-17 09:09:00 51°23.794 2°51.15 -999 0.063613 0.364745 -0.896096
2008-12-17 09:09:05 51°23.81 2°51.148 -999 0.063613 0.364745 -0.896096
2008-12-17 09:09:10 51°23.826 2°51.146 -999 0.063613 0.364731 -0.93092
2008-12-17 09:09:15 51°23.842 2°51.145 -999 0.063613 0.364731 -0.93092
2008-12-17 09:09:20 51°23.859 2°51.143 -999 0.063613 0.364731 -0.93092
2008-12-17 09:09:25 51°23.875 2°51.142 -999 0.063613 0.364731 -0.93092
2008-12-17 09:09:30 51°23.892 2°51.141 -999 0.063613 0.364731 -0.93092
2008-12-17 09:09:35 51°23.908 2°51.138 -999 0.063613 0.364738 -0.93092
2008-12-17 09:09:40 51°23.924 2°51.137 -999 0.063613 0.364731 -0.93092
2008-12-17 09:09:45 51°23.941 2°51.136 -999 0.063613 0.364731 -0.896096
2008-12-17 09:09:50 51°23.957 2°51.135 -999 0.063613 0.364731 -0.93092
2008-12-17 09:09:55 51°23.973 2°51.134 -999 0.063613 0.364724 -0.93092
2008-12-17 09:10:00 51°23.99 2°51.133 -999 0.063613 0.364724 -0.93092
2008-12-17 09:10:05 51°24.006 2°51.132 -999 0.063613 0.364731 -0.93092
2008-12-17 09:10:10 51°24.022 2°51.132 -999 0.063613 0.364731 -0.896096
2008-12-17 09:10:15 51°24.039 2°51.131 -999 0.063613 0.364731 -0.93092
2008-12-17 09:10:20 51°24.055 2°51.13 -999 0.063613 0.364724 -0.93092
2008-12-17 09:10:25 51°24.071 2°51.129 -999 0.063613 0.364724 -0.93092
2008-12-17 09:10:30 51°24.087 2°51.128 -999 0.063613 0.364724 -0.93092
2008-12-17 09:10:35 51°24.104 2°51.127 -999 0.063613 0.364724 -0.93092
2008-12-17 09:10:40 51°24.12 2°51.126 -999 0.063613 0.364724 -0.93092
2008-12-17 09:10:45 51°24.137 2°51.124 -999 0.063613 0.364717 -0.93092
2008-12-17 09:10:50 51°24.153 2°51.124 -999 0.063613 0.364724 -0.93092
2008-12-17 09:10:55 51°24.169 2°51.123 -999 0.063613 0.364717 -0.93092
2008-12-17 09:11:00 51°24.185 2°51.122 -999 0.063613 0.364717 -0.93092
2008-12-17 09:11:05 51°24.202 2°51.121 -999 0.063613 0.364724 -0.93092
2008-12-17 09:11:10 51°24.218 2°51.12 -999 0.063613 0.364724 -0.896096
2008-12-17 09:11:15 51°24.234 2°51.119 -999 0.063613 0.364724 -0.93092
2008-12-17 09:11:20 51°24.25 2°51.118 -999 0.063613 0.364717 -0.896096
2008-12-17 09:11:25 51°24.267 2°51.117 -999 0.063613 0.364724 -0.93092
2008-12-17 09:11:30 51°24.283 2°51.116 -999 0.063613 0.364724 -0.93092
2008-12-17 09:11:35 51°24.299 2°51.114 -999 0.063613 0.364724 -0.93092
2008-12-17 09:11:40 51°24.315 2°51.113 -999 0.063613 0.364724 -0.93092
2008-12-17 09:11:45 51°24.331 2°51.112 -999 0.063613 0.364717 -0.93092
2008-12-17 09:11:50 51°24.347 2°51.111 -999 0.063613 0.364717 -0.93092
2008-12-17 09:11:55 51°24.363 2°51.11 -999 0.063613 0.36471 -0.93092
2008-12-17 09:12:00 51°24.379 2°51.109 -999 0.063613 0.36471 -0.93092
2008-12-17 09:12:05 51°24.394 2°51.108 -999 0.063613 0.364717 -0.93092
2008-12-17 09:12:10 51°24.411 2°51.107 -999 0.063613 0.364717 -0.93092
2008-12-17 09:12:15 51°24.426 2°51.104 -999 0.063613 0.36471 -0.93092
2008-12-17 09:12:20 51°24.442 2°51.104 -999 0.063613 0.36471 -0.93092
2008-12-17 09:12:25 51°24.458 2°51.102 -999 0.063613 0.36471 -0.93092
2008-12-17 09:12:30 51°24.474 2°51.101 -999 0.063613 0.36471 -0.93092
2008-12-17 09:12:35 51°24.49 2°51.1 -999 0.063613 0.364717 -0.93092
2008-12-17 09:12:40 51°24.507 2°51.099 -999 0.063613 0.36471 -0.93092
2008-12-17 09:12:45 51°24.522 2°51.097 -999 0.063613 0.36471 -0.93092
2008-12-17 09:12:50 51°24.538 2°51.096 -999 0.063613 0.36471 -0.93092
2008-12-17 09:12:55 51°24.555 2°51.095 -999 0.063613 0.36471 -0.93092
2008-12-17 09:13:00 51°24.571 2°51.094 -999 0.063613 0.36471 -0.93092
2008-12-17 09:13:05 51°24.587 2°51.093 -999 0.063613 0.36471 -0.93092
2008-12-17 09:13:10 51°24.603 2°51.092 -999 0.063613 0.36471 -0.93092
2008-12-17 09:13:15 51°24.619 2°51.091 -999 0.063613 0.36471 -0.93092
2008-12-17 09:13:20 51°24.635 2°51.089 -999 0.063613 0.36471 -0.93092
2008-12-17 09:13:25 51°24.651 2°51.088 -999 0.063613 0.36471 -0.93092
2008-12-17 09:13:30 51°24.667 2°51.087 -999 0.063613 0.36471 -0.93092
2008-12-17 09:13:35 51°24.683 2°51.085 -999 0.063613 0.36471 -0.93092
2008-12-17 09:13:40 51°24.699 2°51.084 -999 0.063613 0.364703 -0.93092
2008-12-17 09:13:45 51°24.715 2°51.082 -999 0.063613 0.364703 -0.93092
2008-12-17 09:13:50 51°24.732 2°51.081 -999 0.063613 0.36471 -0.93092
2008-12-17 09:13:55 51°24.748 2°51.079 -999 0.063613 0.364703 -0.93092
2008-12-17 09:14:00 51°24.764 2°51.078 -999 0.063613 0.364703 -0.93092
2008-12-17 09:14:05 51°24.78 2°51.075 -999 0.063613 0.36471 -0.93092
2008-12-17 09:14:10 51°24.796 2°51.073 -999 0.063613 0.364703 -0.93092
2008-12-17 09:14:15 51°24.812 2°51.071 -999 0.063613 0.364703 -0.93092
2008-12-17 09:14:20 51°24.828 2°51.068 -999 0.063613 0.364703 -0.93092
2008-12-17 09:14:25 51°24.844 2°51.066 -999 0.063613 0.364696 -0.93092
2008-12-17 09:14:30 51°24.861 2°51.063 -999 0.063613 0.364696 -0.93092
2008-12-17 09:14:35 51°24.877 2°51.061 -999 0.063613 0.364703 -0.93092
2008-12-17 09:14:40 51°24.893 2°51.059 -999 0.063613 0.364696 -0.93092
2008-12-17 09:14:45 51°24.909 2°51.057 -999 0.063613 0.364703 -0.93092
2008-12-17 09:14:50 51°24.925 2°51.054 -999 0.063613 0.364696 -0.93092
2008-12-17 09:14:55 51°24.941 2°51.051 -999 0.063613 0.364696 -0.93092
2008-12-17 09:15:00 51°24.957 2°51.049 -999 0.063613 0.364696 -0.93092
2008-12-17 09:15:05 51°24.974 2°51.047 -999 0.063613 0.364696 -0.93092
2008-12-17 09:15:10 51°24.99 2°51.045 -999 0.063613 0.364696 -0.93092
2008-12-17 09:15:15 51°25.006 2°51.042 -999 0.063613 0.364703 -0.93092
2008-12-17 09:15:20 51°25.022 2°51.038 -999 0.063613 0.364696 -0.93092
2008-12-17 09:15:25 51°25.038 2°51.036 -999 0.063613 0.36469 -0.93092
2008-12-17 09:15:30 51°25.055 2°51.032 -999 0.063613 0.36469 -0.93092
2008-12-17 09:15:35 51°25.071 2°51.029 -999 0.063613 0.364696 -0.93092
2008-12-17 09:15:39 51°25.084 2°51.027 -999 0.063613 0.364696 -0.93092
2008-12-17 09:15:45 51°25.103 2°51.022 -999 0.063613 0.36469 -0.93092
2008-12-17 09:15:50 51°25.119 2°51.019 -999 0.063613 0.36469 -0.93092
2008-12-17 09:15:55 51°25.135 2°51.015 -999 0.063613 0.364683 -0.93092
2008-12-17 09:15:59 51°25.148 2°51.012 -999 0.063613 0.364683 -0.93092
2008-12-17 09:16:05 51°25.167 2°51.009 -999 0.063613 0.36469 -0.93092
2008-12-17 09:16:10 51°25.184 2°51.006 -999 0.063613 0.364683 -0.93092
2008-12-17 09:16:15 51°25.2 2°51.004 -999 0.063613 0.36469 -0.93092
2008-12-17 09:16:19 51°25.212 2°51.002 -999 0.063613 0.364696 -0.93092
2008-12-17 09:16:25 51°25.232 2°51 -999 0.063613 0.364696 -0.93092
2008-12-17 09:16:30 51°25.248 2°50.996 -999 0.063613 0.364696 -0.93092
2008-12-17 09:16:35 51°25.264 2°50.994 -999 0.063613 0.36469 -0.93092
2008-12-17 09:16:39 51°25.277 2°50.992 -999 0.063613 0.36469 -0.93092
2008-12-17 09:16:45 51°25.296 2°50.988 -999 0.063613 0.36469 -0.896096
2008-12-17 09:16:50 51°25.312 2°50.986 -999 0.063613 0.364683 -0.93092
2008-12-17 09:16:55 51°25.328 2°50.984 -999 0.063613 0.364683 -0.93092
2008-12-17 09:16:59 51°25.341 2°50.982 -999 0.063613 0.364683 -0.93092
2008-12-17 09:17:05 51°25.36 2°50.979 -999 0.063613 0.364683 -0.896096
2008-12-17 09:17:10 51°25.376 2°50.977 -999 0.063613 0.364683 -0.93092
2008-12-17 09:17:15 51°25.392 2°50.974 -999 0.063613 0.364683 -0.93092
2008-12-17 09:17:19 51°25.405 2°50.972 -999 0.063613 0.364676 -0.93092
2008-12-17 09:17:25 51°25.425 2°50.969 -999 0.063613 0.364676 -0.93092
2008-12-17 09:17:30 51°25.441 2°50.967 -999 0.063613 0.364676 -0.93092
2008-12-17 09:17:35 51°25.457 2°50.965 -999 0.063613 0.364676 -0.93092
2008-12-17 09:17:39 51°25.47 2°50.963 -999 0.063613 0.364683 -0.93092
2008-12-17 09:17:45 51°25.489 2°50.96 -999 0.063613 0.364676 -0.93092
2008-12-17 09:17:50 51°25.505 2°50.958 -999 0.063613 0.364683 -0.93092
2008-12-17 09:17:55 51°25.521 2°50.955 -999 0.063613 0.364683 -0.896096
2008-12-17 09:17:59 51°25.533 2°50.954 -999 0.063613 0.364683 -0.896096
2008-12-17 09:18:05 51°25.553 2°50.951 -999 0.063613 0.364676 -0.93092
2008-12-17 09:18:10 51°25.569 2°50.949 -999 0.063613 0.364683 -0.93092
2008-12-17 09:18:15 51°25.585 2°50.945 -999 0.063613 0.364683 -0.93092
2008-12-17 09:18:19 51°25.598 2°50.943 -999 0.063613 0.364676 -0.93092
2008-12-17 09:18:25 51°25.617 2°50.939 -999 0.063613 0.364669 -0.93092
2008-12-17 09:18:30 51°25.633 2°50.936 -999 0.063613 0.364669 -0.93092
2008-12-17 09:18:35 51°25.649 2°50.933 -999 0.063613 0.364669 -0.93092
2008-12-17 09:18:39 51°25.662 2°50.931 -999 0.063613 0.364669 -0.896096
2008-12-17 09:18:45 51°25.681 2°50.926 -999 0.063613 0.364669 -0.93092
2008-12-17 09:18:50 51°25.698 2°50.923 -999 0.063613 0.364669 -0.93092
2008-12-17 09:18:55 51°25.713 2°50.919 -999 0.063613 0.364669 -0.93092
2008-12-17 09:18:59 51°25.727 2°50.916 -999 0.063613 0.364669 -0.93092
2008-12-17 09:19:05 51°25.746 2°50.913 -999 0.063613 0.364676 -0.896096
2008-12-17 09:19:10 51°25.762 2°50.909 -999 0.063613 0.364669 -0.93092
2008-12-17 09:19:15 51°25.778 2°50.906 -999 0.063613 0.364676 -0.93092
2008-12-17 09:19:19 51°25.791 2°50.903 -999 0.063613 0.364669 -0.93092
2008-12-17 09:19:24 51°25.807 2°50.9 -999 0.063613 0.364669 -0.93092
2008-12-17 09:19:30 51°25.827 2°50.897 -999 0.063613 0.364669 -0.93092
2008-12-17 09:19:35 51°25.843 2°50.894 -999 0.063613 0.364669 -0.93092
2008-12-17 09:19:39 51°25.856 2°50.892 -999 0.063613 0.364669 -0.93092
2008-12-17 09:19:44 51°25.872 2°50.89 -999 0.063613 0.364669 -0.93092
2008-12-17 09:19:50 51°25.891 2°50.887 -999 0.063613 0.364669 -0.93092
2008-12-17 09:19:55 51°25.907 2°50.885 -999 0.063613 0.364669 -0.93092
2008-12-17 09:19:59 51°25.92 2°50.883 -999 0.063613 0.364669 -0.93092
2008-12-17 09:20:04 51°25.936 2°50.881 -999 0.063613 0.364669 -0.93092
2008-12-17 09:20:10 51°25.956 2°50.878 -999 0.063613 0.364669 -0.93092
2008-12-17 09:20:15 51°25.972 2°50.876 -999 0.063613 0.364662 -0.93092
2008-12-17 09:20:19 51°25.985 2°50.874 -999 0.063613 0.364662 -0.93092
2008-12-17 09:20:24 51°26.001 2°50.872 -999 0.063613 0.364669 -0.93092
2008-12-17 09:20:30 51°26.021 2°50.87 -999 0.063613 0.364669 -0.93092
2008-12-17 09:20:35 51°26.037 2°50.867 -999 0.063613 0.364662 -0.93092
2008-12-17 09:20:40 51°26.053 2°50.866 -999 0.063613 0.364662 -0.896096
2008-12-17 09:20:44 51°26.067 2°50.864 -999 0.063613 0.364662 -0.93092
2008-12-17 09:20:50 51°26.086 2°50.862 -999 0.063613 0.364662 -0.93092
2008-12-17 09:20:55 51°26.103 2°50.86 -999 0.063613 0.364662 -0.93092
2008-12-17 09:20:59 51°26.115 2°50.858 -999 0.063613 0.364662 -0.93092
2008-12-17 09:21:04 51°26.132 2°50.856 -999 0.063613 0.364662 -0.93092
2008-12-17 09:21:10 51°26.151 2°50.854 -999 0.063613 0.364662 -0.896096
2008-12-17 09:21:15 51°26.168 2°50.852 -999 0.063613 0.364655 -0.896096
2008-12-17 09:21:20 51°26.184 2°50.851 -999 0.063613 0.364662 -0.93092
2008-12-17 09:21:24 51°26.197 2°50.849 -999 0.063613 0.364662 -0.93092
2008-12-17 09:21:30 51°26.217 2°50.846 -999 0.063613 0.364662 -0.93092
2008-12-17 09:21:35 51°26.233 2°50.843 -999 0.063613 0.364655 -0.93092
2008-12-17 09:21:39 51°26.246 2°50.841 -999 0.063613 0.364655 -0.93092
2008-12-17 09:21:44 51°26.263 2°50.838 -999 0.063613 0.364662 -0.93092
2008-12-17 09:21:50 51°26.282 2°50.835 -999 0.063613 0.364655 -0.93092
2008-12-17 09:21:55 51°26.299 2°50.832 -999 0.063613 0.364655 -0.93092
2008-12-17 09:22:00 51°26.315 2°50.829 -999 0.063613 0.364655 -0.93092
2008-12-17 09:22:04 51°26.328 2°50.828 -999 0.063613 0.364655 -0.93092
2008-12-17 09:22:10 51°26.348 2°50.826 -999 0.063613 0.364648 -0.93092
2008-12-17 09:22:15 51°26.364 2°50.824 -999 0.063613 0.364655 -0.93092
2008-12-17 09:22:19 51°26.377 2°50.823 -999 0.063613 0.364655 -0.93092
2008-12-17 09:22:24 51°26.394 2°50.822 -999 0.063613 0.364655 -0.93092
2008-12-17 09:22:30 51°26.413 2°50.819 -999 0.063613 0.364655 -0.93092
2008-12-17 09:22:35 51°26.43 2°50.818 -999 0.063613 0.364662 -0.93092
2008-12-17 09:22:39 51°26.443 2°50.816 -999 0.063613 0.364655 -0.93092
2008-12-17 09:22:45 51°26.462 2°50.814 -999 0.063613 0.364662 -0.93092
2008-12-17 09:22:50 51°26.479 2°50.812 -999 0.063613 0.364648 -0.93092
2008-12-17 09:22:55 51°26.495 2°50.81 -999 0.063613 0.364655 -0.93092
2008-12-17 09:22:59 51°26.508 2°50.809 -999 0.063613 0.364655 -0.93092
2008-12-17 09:23:04 51°26.525 2°50.807 -999 0.063613 0.364648 -0.93092
2008-12-17 09:23:10 51°26.544 2°50.806 -999 0.063613 0.364655 -0.93092
2008-12-17 09:23:15 51°26.561 2°50.804 -999 0.063613 0.364648 -0.93092
2008-12-17 09:23:19 51°26.574 2°50.803 -999 0.063613 0.364655 -0.93092
2008-12-17 09:23:24 51°26.591 2°50.801 -999 0.063613 0.364648 -0.93092
2008-12-17 09:23:30 51°26.61 2°50.799 -999 0.063613 0.364648 -0.93092
2008-12-17 09:23:35 51°26.627 2°50.797 -999 0.063613 0.364655 -0.93092
2008-12-17 09:23:39 51°26.64 2°50.796 -999 0.063613 0.364648 -0.93092
2008-12-17 09:23:45 51°26.66 2°50.793 -999 0.063613 0.364641 -0.93092
2008-12-17 09:23:50 51°26.676 2°50.792 -999 0.063613 0.364648 -0.93092